<?xml version="1.0" encoding="UTF-8" standalone="no" ?>
<gpx xmlns="http://www.topografix.com/GPX/1/1" xmlns:xsi="http://www.w3.org/2001/XMLSchema-instance" xsi:schemaLocation="http://www.topografix.com/GPX/1/1 http://www.topografix.com/GPX/1/1/gpx.xsd" version="1.1" creator="VisuGPX - https://www.visugpx.com">
  <metadata>
    <name>La montagne de la Lance depuis les Guilles</name>
    <desc><![CDATA[Randonnée faite en groupe le 14/10/21, nous avons mangé au sommet, soleil et vent faible d'Ouest.
Progression plus agréable dans ce sens.]]></desc>
  </metadata>
  <trk>
    <name><![CDATA[2021-10-14 16:06:18]]></name>
    <extensions>
      <line xmlns="http://www.topografix.com/GPX/gpx_style/0/2">
        <color>0000FF</color>
        <width>4</width>
      </line>
    </extensions>
    <trkseg>
      <trkpt lat="44.4311" lon="5.0862">
        <ele>580.8</ele>
        <time>2021-10-14T07:32:03Z</time>
      </trkpt>
      <trkpt lat="44.4311" lon="5.08621">
        <ele>581</ele>
        <time>2021-10-14T07:32:04Z</time>
      </trkpt>
      <trkpt lat="44.43112" lon="5.08621">
        <ele>580.9</ele>
        <time>2021-10-14T07:32:55Z</time>
      </trkpt>
      <trkpt lat="44.43112" lon="5.08616">
        <ele>579.8</ele>
        <time>2021-10-14T07:33:23Z</time>
      </trkpt>
      <trkpt lat="44.43112" lon="5.08616">
        <ele>579.8</ele>
        <time>2021-10-14T07:34:10Z</time>
      </trkpt>
      <trkpt lat="44.43113" lon="5.08615">
        <ele>579.5</ele>
        <time>2021-10-14T07:34:40Z</time>
      </trkpt>
      <trkpt lat="44.4311" lon="5.08611">
        <ele>578.8</ele>
        <time>2021-10-14T07:34:55Z</time>
      </trkpt>
      <trkpt lat="44.43093" lon="5.08617">
        <ele>581.4</ele>
        <time>2021-10-14T07:35:13Z</time>
      </trkpt>
      <trkpt lat="44.43092" lon="5.08618">
        <ele>581.7</ele>
        <time>2021-10-14T07:35:14Z</time>
      </trkpt>
      <trkpt lat="44.43079" lon="5.08627">
        <ele>584.2</ele>
        <time>2021-10-14T07:35:30Z</time>
      </trkpt>
      <trkpt lat="44.43066" lon="5.08638">
        <ele>585.9</ele>
        <time>2021-10-14T07:35:45Z</time>
      </trkpt>
      <trkpt lat="44.4305" lon="5.08652">
        <ele>588.1</ele>
        <time>2021-10-14T07:36:04Z</time>
      </trkpt>
      <trkpt lat="44.43045" lon="5.08656">
        <ele>588.7</ele>
        <time>2021-10-14T07:36:09Z</time>
      </trkpt>
      <trkpt lat="44.43041" lon="5.08658">
        <ele>588.9</ele>
        <time>2021-10-14T07:36:13Z</time>
      </trkpt>
      <trkpt lat="44.43022" lon="5.08664">
        <ele>588.9</ele>
        <time>2021-10-14T07:36:30Z</time>
      </trkpt>
      <trkpt lat="44.43009" lon="5.0867">
        <ele>589.7</ele>
        <time>2021-10-14T07:36:45Z</time>
      </trkpt>
      <trkpt lat="44.42988" lon="5.08685">
        <ele>592</ele>
        <time>2021-10-14T07:37:06Z</time>
      </trkpt>
      <trkpt lat="44.42967" lon="5.08701">
        <ele>593.4</ele>
        <time>2021-10-14T07:37:28Z</time>
      </trkpt>
      <trkpt lat="44.4297" lon="5.08712">
        <ele>596.8</ele>
        <time>2021-10-14T07:37:41Z</time>
      </trkpt>
      <trkpt lat="44.42988" lon="5.08707">
        <ele>598.2</ele>
        <time>2021-10-14T07:38:00Z</time>
      </trkpt>
      <trkpt lat="44.4299" lon="5.08707">
        <ele>598.6</ele>
        <time>2021-10-14T07:38:02Z</time>
      </trkpt>
      <trkpt lat="44.43005" lon="5.08702">
        <ele>599</ele>
        <time>2021-10-14T07:38:19Z</time>
      </trkpt>
      <trkpt lat="44.43006" lon="5.08702">
        <ele>599.1</ele>
        <time>2021-10-14T07:38:20Z</time>
      </trkpt>
      <trkpt lat="44.43022" lon="5.08701">
        <ele>600.2</ele>
        <time>2021-10-14T07:38:35Z</time>
      </trkpt>
      <trkpt lat="44.43034" lon="5.08705">
        <ele>602.5</ele>
        <time>2021-10-14T07:38:49Z</time>
      </trkpt>
      <trkpt lat="44.43049" lon="5.08707">
        <ele>604.5</ele>
        <time>2021-10-14T07:39:07Z</time>
      </trkpt>
      <trkpt lat="44.4305" lon="5.08707">
        <ele>604.6</ele>
        <time>2021-10-14T07:39:08Z</time>
      </trkpt>
      <trkpt lat="44.43063" lon="5.08708">
        <ele>606.1</ele>
        <time>2021-10-14T07:39:23Z</time>
      </trkpt>
      <trkpt lat="44.43076" lon="5.08711">
        <ele>608.2</ele>
        <time>2021-10-14T07:39:38Z</time>
      </trkpt>
      <trkpt lat="44.43088" lon="5.08713">
        <ele>609</ele>
        <time>2021-10-14T07:39:53Z</time>
      </trkpt>
      <trkpt lat="44.43099" lon="5.08716">
        <ele>608.6</ele>
        <time>2021-10-14T07:40:05Z</time>
      </trkpt>
      <trkpt lat="44.43096" lon="5.08728">
        <ele>612.9</ele>
        <time>2021-10-14T07:40:20Z</time>
      </trkpt>
      <trkpt lat="44.43082" lon="5.08735">
        <ele>616.8</ele>
        <time>2021-10-14T07:40:38Z</time>
      </trkpt>
      <trkpt lat="44.43071" lon="5.08744">
        <ele>618.7</ele>
        <time>2021-10-14T07:40:53Z</time>
      </trkpt>
      <trkpt lat="44.4306" lon="5.08753">
        <ele>620.6</ele>
        <time>2021-10-14T07:41:09Z</time>
      </trkpt>
      <trkpt lat="44.43048" lon="5.08762">
        <ele>622.5</ele>
        <time>2021-10-14T07:41:25Z</time>
      </trkpt>
      <trkpt lat="44.43037" lon="5.08771">
        <ele>624.7</ele>
        <time>2021-10-14T07:41:42Z</time>
      </trkpt>
      <trkpt lat="44.43023" lon="5.08781">
        <ele>627.1</ele>
        <time>2021-10-14T07:42:00Z</time>
      </trkpt>
      <trkpt lat="44.43009" lon="5.08792">
        <ele>629.9</ele>
        <time>2021-10-14T07:42:19Z</time>
      </trkpt>
      <trkpt lat="44.42997" lon="5.08804">
        <ele>633.1</ele>
        <time>2021-10-14T07:42:38Z</time>
      </trkpt>
      <trkpt lat="44.42986" lon="5.08817">
        <ele>635.6</ele>
        <time>2021-10-14T07:42:56Z</time>
      </trkpt>
      <trkpt lat="44.42974" lon="5.08829">
        <ele>637.4</ele>
        <time>2021-10-14T07:43:13Z</time>
      </trkpt>
      <trkpt lat="44.42976" lon="5.08839">
        <ele>641.1</ele>
        <time>2021-10-14T07:43:28Z</time>
      </trkpt>
      <trkpt lat="44.42991" lon="5.08833">
        <ele>642.8</ele>
        <time>2021-10-14T07:43:45Z</time>
      </trkpt>
      <trkpt lat="44.43006" lon="5.08834">
        <ele>645.6</ele>
        <time>2021-10-14T07:44:02Z</time>
      </trkpt>
      <trkpt lat="44.43012" lon="5.08835">
        <ele>646.3</ele>
        <time>2021-10-14T07:44:09Z</time>
      </trkpt>
      <trkpt lat="44.43022" lon="5.08838">
        <ele>647.9</ele>
        <time>2021-10-14T07:44:22Z</time>
      </trkpt>
      <trkpt lat="44.43037" lon="5.0884">
        <ele>649.5</ele>
        <time>2021-10-14T07:44:41Z</time>
      </trkpt>
      <trkpt lat="44.4305" lon="5.08842">
        <ele>651.1</ele>
        <time>2021-10-14T07:44:57Z</time>
      </trkpt>
      <trkpt lat="44.43066" lon="5.08844">
        <ele>652.9</ele>
        <time>2021-10-14T07:45:17Z</time>
      </trkpt>
      <trkpt lat="44.43077" lon="5.0885">
        <ele>655.5</ele>
        <time>2021-10-14T07:45:30Z</time>
      </trkpt>
      <trkpt lat="44.43078" lon="5.08854">
        <ele>656.8</ele>
        <time>2021-10-14T07:45:34Z</time>
      </trkpt>
      <trkpt lat="44.43068" lon="5.08864">
        <ele>658.9</ele>
        <time>2021-10-14T07:45:49Z</time>
      </trkpt>
      <trkpt lat="44.43055" lon="5.08869">
        <ele>659.2</ele>
        <time>2021-10-14T07:46:05Z</time>
      </trkpt>
      <trkpt lat="44.43044" lon="5.08879">
        <ele>661.1</ele>
        <time>2021-10-14T07:46:21Z</time>
      </trkpt>
      <trkpt lat="44.4303" lon="5.08889">
        <ele>662.6</ele>
        <time>2021-10-14T07:46:39Z</time>
      </trkpt>
      <trkpt lat="44.43016" lon="5.08901">
        <ele>664.5</ele>
        <time>2021-10-14T07:46:57Z</time>
      </trkpt>
      <trkpt lat="44.43003" lon="5.08912">
        <ele>666.1</ele>
        <time>2021-10-14T07:47:14Z</time>
      </trkpt>
      <trkpt lat="44.42987" lon="5.08924">
        <ele>666.6</ele>
        <time>2021-10-14T07:47:30Z</time>
      </trkpt>
      <trkpt lat="44.42985" lon="5.08926">
        <ele>666.8</ele>
        <time>2021-10-14T07:47:33Z</time>
      </trkpt>
      <trkpt lat="44.42973" lon="5.08936">
        <ele>667.4</ele>
        <time>2021-10-14T07:47:47Z</time>
      </trkpt>
      <trkpt lat="44.42962" lon="5.0895">
        <ele>669.6</ele>
        <time>2021-10-14T07:48:03Z</time>
      </trkpt>
      <trkpt lat="44.42949" lon="5.08962">
        <ele>670.9</ele>
        <time>2021-10-14T07:48:20Z</time>
      </trkpt>
      <trkpt lat="44.42944" lon="5.08968">
        <ele>671.8</ele>
        <time>2021-10-14T07:48:27Z</time>
      </trkpt>
      <trkpt lat="44.42933" lon="5.08986">
        <ele>675.5</ele>
        <time>2021-10-14T07:48:44Z</time>
      </trkpt>
      <trkpt lat="44.42928" lon="5.08991">
        <ele>676.2</ele>
        <time>2021-10-14T07:48:50Z</time>
      </trkpt>
      <trkpt lat="44.42916" lon="5.09007">
        <ele>678.4</ele>
        <time>2021-10-14T07:49:08Z</time>
      </trkpt>
      <trkpt lat="44.42914" lon="5.0901">
        <ele>678.4</ele>
        <time>2021-10-14T07:49:11Z</time>
      </trkpt>
      <trkpt lat="44.42912" lon="5.09013">
        <ele>678.4</ele>
        <time>2021-10-14T07:49:14Z</time>
      </trkpt>
      <trkpt lat="44.42896" lon="5.09032">
        <ele>677.3</ele>
        <time>2021-10-14T07:49:35Z</time>
      </trkpt>
      <trkpt lat="44.42884" lon="5.09049">
        <ele>676.9</ele>
        <time>2021-10-14T07:49:52Z</time>
      </trkpt>
      <trkpt lat="44.42867" lon="5.09074">
        <ele>676.2</ele>
        <time>2021-10-14T07:50:15Z</time>
      </trkpt>
      <trkpt lat="44.42858" lon="5.09094">
        <ele>676.3</ele>
        <time>2021-10-14T07:50:31Z</time>
      </trkpt>
      <trkpt lat="44.4285" lon="5.09118">
        <ele>676.2</ele>
        <time>2021-10-14T07:50:49Z</time>
      </trkpt>
      <trkpt lat="44.42845" lon="5.09146">
        <ele>677.6</ele>
        <time>2021-10-14T07:51:08Z</time>
      </trkpt>
      <trkpt lat="44.42841" lon="5.09171">
        <ele>679</ele>
        <time>2021-10-14T07:51:27Z</time>
      </trkpt>
      <trkpt lat="44.42842" lon="5.09198">
        <ele>683.7</ele>
        <time>2021-10-14T07:51:48Z</time>
      </trkpt>
      <trkpt lat="44.42846" lon="5.09221">
        <ele>688.9</ele>
        <time>2021-10-14T07:52:04Z</time>
      </trkpt>
      <trkpt lat="44.42834" lon="5.09239">
        <ele>687.4</ele>
        <time>2021-10-14T07:52:20Z</time>
      </trkpt>
      <trkpt lat="44.42817" lon="5.09242">
        <ele>679.9</ele>
        <time>2021-10-14T07:52:36Z</time>
      </trkpt>
      <trkpt lat="44.42809" lon="5.09243">
        <ele>676.2</ele>
        <time>2021-10-14T07:52:47Z</time>
      </trkpt>
      <trkpt lat="44.42797" lon="5.09242">
        <ele>670.3</ele>
        <time>2021-10-14T07:53:08Z</time>
      </trkpt>
      <trkpt lat="44.42795" lon="5.09239">
        <ele>668.9</ele>
        <time>2021-10-14T07:53:39Z</time>
      </trkpt>
      <trkpt lat="44.42794" lon="5.09239">
        <ele>668.4</ele>
        <time>2021-10-14T07:54:20Z</time>
      </trkpt>
      <trkpt lat="44.42794" lon="5.0924">
        <ele>668.6</ele>
        <time>2021-10-14T07:54:53Z</time>
      </trkpt>
      <trkpt lat="44.42795" lon="5.09241">
        <ele>669.2</ele>
        <time>2021-10-14T07:55:43Z</time>
      </trkpt>
      <trkpt lat="44.42794" lon="5.09241">
        <ele>668.7</ele>
        <time>2021-10-14T07:56:28Z</time>
      </trkpt>
      <trkpt lat="44.42794" lon="5.09241">
        <ele>668.7</ele>
        <time>2021-10-14T07:57:16Z</time>
      </trkpt>
      <trkpt lat="44.42794" lon="5.09241">
        <ele>668.7</ele>
        <time>2021-10-14T07:57:56Z</time>
      </trkpt>
      <trkpt lat="44.42791" lon="5.09247">
        <ele>668.2</ele>
        <time>2021-10-14T07:58:11Z</time>
      </trkpt>
      <trkpt lat="44.42789" lon="5.09262">
        <ele>670.1</ele>
        <time>2021-10-14T07:58:23Z</time>
      </trkpt>
      <trkpt lat="44.42789" lon="5.09283">
        <ele>674.3</ele>
        <time>2021-10-14T07:58:38Z</time>
      </trkpt>
      <trkpt lat="44.42789" lon="5.09311">
        <ele>679.8</ele>
        <time>2021-10-14T07:58:56Z</time>
      </trkpt>
      <trkpt lat="44.42784" lon="5.09336">
        <ele>682.6</ele>
        <time>2021-10-14T07:59:13Z</time>
      </trkpt>
      <trkpt lat="44.42784" lon="5.09338">
        <ele>683.1</ele>
        <time>2021-10-14T07:59:14Z</time>
      </trkpt>
      <trkpt lat="44.42783" lon="5.09346">
        <ele>684.8</ele>
        <time>2021-10-14T07:59:18Z</time>
      </trkpt>
      <trkpt lat="44.42776" lon="5.09368">
        <ele>687.3</ele>
        <time>2021-10-14T07:59:34Z</time>
      </trkpt>
      <trkpt lat="44.42766" lon="5.09385">
        <ele>687.4</ele>
        <time>2021-10-14T07:59:49Z</time>
      </trkpt>
      <trkpt lat="44.4275" lon="5.09404">
        <ele>685.5</ele>
        <time>2021-10-14T08:00:07Z</time>
      </trkpt>
      <trkpt lat="44.42741" lon="5.09411">
        <ele>683.5</ele>
        <time>2021-10-14T08:00:23Z</time>
      </trkpt>
      <trkpt lat="44.42739" lon="5.09415">
        <ele>683.8</ele>
        <time>2021-10-14T08:00:27Z</time>
      </trkpt>
      <trkpt lat="44.42738" lon="5.09417">
        <ele>683.9</ele>
        <time>2021-10-14T08:00:29Z</time>
      </trkpt>
      <trkpt lat="44.42726" lon="5.09434">
        <ele>682.5</ele>
        <time>2021-10-14T08:00:45Z</time>
      </trkpt>
      <trkpt lat="44.42712" lon="5.09452">
        <ele>680.3</ele>
        <time>2021-10-14T08:01:01Z</time>
      </trkpt>
      <trkpt lat="44.42699" lon="5.09469">
        <ele>678.1</ele>
        <time>2021-10-14T08:01:17Z</time>
      </trkpt>
      <trkpt lat="44.4269" lon="5.09491">
        <ele>678.7</ele>
        <time>2021-10-14T08:01:36Z</time>
      </trkpt>
      <trkpt lat="44.42688" lon="5.09508">
        <ele>680</ele>
        <time>2021-10-14T08:01:50Z</time>
      </trkpt>
      <trkpt lat="44.42689" lon="5.0953">
        <ele>681.4</ele>
        <time>2021-10-14T08:02:05Z</time>
      </trkpt>
      <trkpt lat="44.4269" lon="5.09548">
        <ele>682.6</ele>
        <time>2021-10-14T08:02:17Z</time>
      </trkpt>
      <trkpt lat="44.42689" lon="5.09553">
        <ele>682.3</ele>
        <time>2021-10-14T08:02:20Z</time>
      </trkpt>
      <trkpt lat="44.42689" lon="5.0956">
        <ele>682.6</ele>
        <time>2021-10-14T08:02:24Z</time>
      </trkpt>
      <trkpt lat="44.42688" lon="5.09565">
        <ele>682.3</ele>
        <time>2021-10-14T08:02:27Z</time>
      </trkpt>
      <trkpt lat="44.42692" lon="5.09596">
        <ele>685.2</ele>
        <time>2021-10-14T08:02:43Z</time>
      </trkpt>
      <trkpt lat="44.427" lon="5.09627">
        <ele>689.2</ele>
        <time>2021-10-14T08:03:01Z</time>
      </trkpt>
      <trkpt lat="44.4271" lon="5.09652">
        <ele>693.4</ele>
        <time>2021-10-14T08:03:17Z</time>
      </trkpt>
      <trkpt lat="44.42713" lon="5.09657">
        <ele>694.5</ele>
        <time>2021-10-14T08:03:21Z</time>
      </trkpt>
      <trkpt lat="44.42716" lon="5.0966">
        <ele>695.7</ele>
        <time>2021-10-14T08:03:25Z</time>
      </trkpt>
      <trkpt lat="44.42724" lon="5.0967">
        <ele>698.7</ele>
        <time>2021-10-14T08:03:35Z</time>
      </trkpt>
      <trkpt lat="44.42733" lon="5.0968">
        <ele>701.5</ele>
        <time>2021-10-14T08:03:46Z</time>
      </trkpt>
      <trkpt lat="44.42735" lon="5.09682">
        <ele>702</ele>
        <time>2021-10-14T08:03:49Z</time>
      </trkpt>
      <trkpt lat="44.42739" lon="5.09687">
        <ele>702.9</ele>
        <time>2021-10-14T08:03:55Z</time>
      </trkpt>
      <trkpt lat="44.42743" lon="5.09694">
        <ele>703.3</ele>
        <time>2021-10-14T08:04:01Z</time>
      </trkpt>
      <trkpt lat="44.42752" lon="5.09707">
        <ele>703.8</ele>
        <time>2021-10-14T08:04:15Z</time>
      </trkpt>
      <trkpt lat="44.42763" lon="5.09726">
        <ele>704</ele>
        <time>2021-10-14T08:04:33Z</time>
      </trkpt>
      <trkpt lat="44.4277" lon="5.0974">
        <ele>703.7</ele>
        <time>2021-10-14T08:04:48Z</time>
      </trkpt>
      <trkpt lat="44.42777" lon="5.09751">
        <ele>703.9</ele>
        <time>2021-10-14T08:05:00Z</time>
      </trkpt>
      <trkpt lat="44.42786" lon="5.0977">
        <ele>708.8</ele>
        <time>2021-10-14T08:05:16Z</time>
      </trkpt>
      <trkpt lat="44.42795" lon="5.09783">
        <ele>712.6</ele>
        <time>2021-10-14T08:05:30Z</time>
      </trkpt>
      <trkpt lat="44.42801" lon="5.09787">
        <ele>714.5</ele>
        <time>2021-10-14T08:05:37Z</time>
      </trkpt>
      <trkpt lat="44.42803" lon="5.0979">
        <ele>715.4</ele>
        <time>2021-10-14T08:05:41Z</time>
      </trkpt>
      <trkpt lat="44.42808" lon="5.09795">
        <ele>717.1</ele>
        <time>2021-10-14T08:05:48Z</time>
      </trkpt>
      <trkpt lat="44.42808" lon="5.09802">
        <ele>718</ele>
        <time>2021-10-14T08:06:00Z</time>
      </trkpt>
      <trkpt lat="44.42805" lon="5.09811">
        <ele>718.4</ele>
        <time>2021-10-14T08:06:07Z</time>
      </trkpt>
      <trkpt lat="44.42793" lon="5.09823">
        <ele>717.4</ele>
        <time>2021-10-14T08:06:22Z</time>
      </trkpt>
      <trkpt lat="44.42787" lon="5.09829">
        <ele>717</ele>
        <time>2021-10-14T08:06:29Z</time>
      </trkpt>
      <trkpt lat="44.42776" lon="5.09841">
        <ele>717.8</ele>
        <time>2021-10-14T08:06:46Z</time>
      </trkpt>
      <trkpt lat="44.42769" lon="5.09852">
        <ele>720</ele>
        <time>2021-10-14T08:07:02Z</time>
      </trkpt>
      <trkpt lat="44.42765" lon="5.09869">
        <ele>724.8</ele>
        <time>2021-10-14T08:07:19Z</time>
      </trkpt>
      <trkpt lat="44.42755" lon="5.09881">
        <ele>726.5</ele>
        <time>2021-10-14T08:07:39Z</time>
      </trkpt>
      <trkpt lat="44.42746" lon="5.09874">
        <ele>723.9</ele>
        <time>2021-10-14T08:07:51Z</time>
      </trkpt>
      <trkpt lat="44.42729" lon="5.0987">
        <ele>725.5</ele>
        <time>2021-10-14T08:08:07Z</time>
      </trkpt>
      <trkpt lat="44.42716" lon="5.09869">
        <ele>727.4</ele>
        <time>2021-10-14T08:08:25Z</time>
      </trkpt>
      <trkpt lat="44.42704" lon="5.09863">
        <ele>727.8</ele>
        <time>2021-10-14T08:08:40Z</time>
      </trkpt>
      <trkpt lat="44.42684" lon="5.09862">
        <ele>731.1</ele>
        <time>2021-10-14T08:09:02Z</time>
      </trkpt>
      <trkpt lat="44.42689" lon="5.09878">
        <ele>734.6</ele>
        <time>2021-10-14T08:09:19Z</time>
      </trkpt>
      <trkpt lat="44.4269" lon="5.0988">
        <ele>734.9</ele>
        <time>2021-10-14T08:09:20Z</time>
      </trkpt>
      <trkpt lat="44.42697" lon="5.09884">
        <ele>734.9</ele>
        <time>2021-10-14T08:09:27Z</time>
      </trkpt>
      <trkpt lat="44.42701" lon="5.0989">
        <ele>736</ele>
        <time>2021-10-14T08:09:33Z</time>
      </trkpt>
      <trkpt lat="44.42704" lon="5.09897">
        <ele>737.5</ele>
        <time>2021-10-14T08:09:38Z</time>
      </trkpt>
      <trkpt lat="44.42708" lon="5.099">
        <ele>737.7</ele>
        <time>2021-10-14T08:09:42Z</time>
      </trkpt>
      <trkpt lat="44.42722" lon="5.09911">
        <ele>739</ele>
        <time>2021-10-14T08:09:59Z</time>
      </trkpt>
      <trkpt lat="44.42732" lon="5.09915">
        <ele>738.9</ele>
        <time>2021-10-14T08:10:11Z</time>
      </trkpt>
      <trkpt lat="44.42741" lon="5.09916">
        <ele>738</ele>
        <time>2021-10-14T08:10:22Z</time>
      </trkpt>
      <trkpt lat="44.4275" lon="5.09925">
        <ele>739.6</ele>
        <time>2021-10-14T08:10:36Z</time>
      </trkpt>
      <trkpt lat="44.42754" lon="5.09931">
        <ele>742.4</ele>
        <time>2021-10-14T08:10:46Z</time>
      </trkpt>
      <trkpt lat="44.42762" lon="5.09947">
        <ele>749</ele>
        <time>2021-10-14T08:11:02Z</time>
      </trkpt>
      <trkpt lat="44.4277" lon="5.09951">
        <ele>751.9</ele>
        <time>2021-10-14T08:11:14Z</time>
      </trkpt>
      <trkpt lat="44.42778" lon="5.09955">
        <ele>754.7</ele>
        <time>2021-10-14T08:11:26Z</time>
      </trkpt>
      <trkpt lat="44.42783" lon="5.09959">
        <ele>756.9</ele>
        <time>2021-10-14T08:11:33Z</time>
      </trkpt>
      <trkpt lat="44.42793" lon="5.09966">
        <ele>761</ele>
        <time>2021-10-14T08:11:48Z</time>
      </trkpt>
      <trkpt lat="44.42803" lon="5.09967">
        <ele>763.3</ele>
        <time>2021-10-14T08:12:04Z</time>
      </trkpt>
      <trkpt lat="44.42808" lon="5.09974">
        <ele>766.2</ele>
        <time>2021-10-14T08:12:16Z</time>
      </trkpt>
      <trkpt lat="44.42807" lon="5.09984">
        <ele>768.8</ele>
        <time>2021-10-14T08:12:22Z</time>
      </trkpt>
      <trkpt lat="44.42795" lon="5.09991">
        <ele>768.5</ele>
        <time>2021-10-14T08:12:39Z</time>
      </trkpt>
      <trkpt lat="44.42792" lon="5.09988">
        <ele>767.1</ele>
        <time>2021-10-14T08:12:42Z</time>
      </trkpt>
      <trkpt lat="44.42781" lon="5.09979">
        <ele>762.4</ele>
        <time>2021-10-14T08:12:54Z</time>
      </trkpt>
      <trkpt lat="44.42766" lon="5.09976">
        <ele>758.6</ele>
        <time>2021-10-14T08:13:10Z</time>
      </trkpt>
      <trkpt lat="44.42754" lon="5.0998">
        <ele>757.5</ele>
        <time>2021-10-14T08:13:24Z</time>
      </trkpt>
      <trkpt lat="44.42743" lon="5.09979">
        <ele>757.2</ele>
        <time>2021-10-14T08:13:38Z</time>
      </trkpt>
      <trkpt lat="44.42735" lon="5.09979">
        <ele>758.2</ele>
        <time>2021-10-14T08:13:48Z</time>
      </trkpt>
      <trkpt lat="44.42721" lon="5.09986">
        <ele>761.9</ele>
        <time>2021-10-14T08:14:04Z</time>
      </trkpt>
      <trkpt lat="44.42711" lon="5.09992">
        <ele>764.8</ele>
        <time>2021-10-14T08:14:18Z</time>
      </trkpt>
      <trkpt lat="44.42696" lon="5.09998">
        <ele>768.2</ele>
        <time>2021-10-14T08:14:38Z</time>
      </trkpt>
      <trkpt lat="44.42683" lon="5.10002">
        <ele>770.9</ele>
        <time>2021-10-14T08:14:57Z</time>
      </trkpt>
      <trkpt lat="44.42688" lon="5.10017">
        <ele>775.4</ele>
        <time>2021-10-14T08:15:18Z</time>
      </trkpt>
      <trkpt lat="44.42703" lon="5.10028">
        <ele>778</ele>
        <time>2021-10-14T08:15:39Z</time>
      </trkpt>
      <trkpt lat="44.42726" lon="5.10034">
        <ele>778.5</ele>
        <time>2021-10-14T08:16:06Z</time>
      </trkpt>
      <trkpt lat="44.42743" lon="5.10036">
        <ele>778.2</ele>
        <time>2021-10-14T08:16:26Z</time>
      </trkpt>
      <trkpt lat="44.42758" lon="5.10032">
        <ele>776.9</ele>
        <time>2021-10-14T08:16:44Z</time>
      </trkpt>
      <trkpt lat="44.42769" lon="5.10036">
        <ele>779.6</ele>
        <time>2021-10-14T08:16:58Z</time>
      </trkpt>
      <trkpt lat="44.42781" lon="5.10047">
        <ele>784.6</ele>
        <time>2021-10-14T08:17:15Z</time>
      </trkpt>
      <trkpt lat="44.42794" lon="5.10062">
        <ele>790.3</ele>
        <time>2021-10-14T08:17:38Z</time>
      </trkpt>
      <trkpt lat="44.42802" lon="5.10071">
        <ele>793.4</ele>
        <time>2021-10-14T08:17:53Z</time>
      </trkpt>
      <trkpt lat="44.42808" lon="5.10074">
        <ele>794.4</ele>
        <time>2021-10-14T08:17:57Z</time>
      </trkpt>
      <trkpt lat="44.42822" lon="5.10084">
        <ele>797.3</ele>
        <time>2021-10-14T08:18:17Z</time>
      </trkpt>
      <trkpt lat="44.4284" lon="5.10091">
        <ele>802.1</ele>
        <time>2021-10-14T08:18:37Z</time>
      </trkpt>
      <trkpt lat="44.42849" lon="5.10099">
        <ele>807.7</ele>
        <time>2021-10-14T08:18:56Z</time>
      </trkpt>
      <trkpt lat="44.42868" lon="5.10104">
        <ele>814.6</ele>
        <time>2021-10-14T08:19:18Z</time>
      </trkpt>
      <trkpt lat="44.42887" lon="5.10116">
        <ele>822.4</ele>
        <time>2021-10-14T08:19:40Z</time>
      </trkpt>
      <trkpt lat="44.42885" lon="5.10122">
        <ele>823.2</ele>
        <time>2021-10-14T08:19:46Z</time>
      </trkpt>
      <trkpt lat="44.42864" lon="5.10124">
        <ele>819.2</ele>
        <time>2021-10-14T08:20:05Z</time>
      </trkpt>
      <trkpt lat="44.42849" lon="5.1012">
        <ele>814.6</ele>
        <time>2021-10-14T08:20:21Z</time>
      </trkpt>
      <trkpt lat="44.42836" lon="5.10115">
        <ele>809.8</ele>
        <time>2021-10-14T08:20:38Z</time>
      </trkpt>
      <trkpt lat="44.42822" lon="5.10114">
        <ele>808.6</ele>
        <time>2021-10-14T08:20:55Z</time>
      </trkpt>
      <trkpt lat="44.42804" lon="5.10112">
        <ele>807.6</ele>
        <time>2021-10-14T08:21:14Z</time>
      </trkpt>
      <trkpt lat="44.428" lon="5.10112">
        <ele>807.6</ele>
        <time>2021-10-14T08:21:19Z</time>
      </trkpt>
      <trkpt lat="44.4279" lon="5.1011">
        <ele>806.7</ele>
        <time>2021-10-14T08:21:30Z</time>
      </trkpt>
      <trkpt lat="44.42781" lon="5.10111">
        <ele>807</ele>
        <time>2021-10-14T08:21:39Z</time>
      </trkpt>
      <trkpt lat="44.42767" lon="5.10116">
        <ele>808.6</ele>
        <time>2021-10-14T08:21:54Z</time>
      </trkpt>
      <trkpt lat="44.42756" lon="5.10126">
        <ele>812</ele>
        <time>2021-10-14T08:22:09Z</time>
      </trkpt>
      <trkpt lat="44.42743" lon="5.10139">
        <ele>816.2</ele>
        <time>2021-10-14T08:22:27Z</time>
      </trkpt>
      <trkpt lat="44.42732" lon="5.10153">
        <ele>820.6</ele>
        <time>2021-10-14T08:22:46Z</time>
      </trkpt>
      <trkpt lat="44.42717" lon="5.10171">
        <ele>826</ele>
        <time>2021-10-14T08:23:09Z</time>
      </trkpt>
      <trkpt lat="44.42699" lon="5.1018">
        <ele>828.2</ele>
        <time>2021-10-14T08:23:33Z</time>
      </trkpt>
      <trkpt lat="44.42692" lon="5.10193">
        <ele>832.4</ele>
        <time>2021-10-14T08:23:54Z</time>
      </trkpt>
      <trkpt lat="44.42692" lon="5.10193">
        <ele>832.4</ele>
        <time>2021-10-14T08:23:55Z</time>
      </trkpt>
      <trkpt lat="44.42711" lon="5.10191">
        <ele>832.8</ele>
        <time>2021-10-14T08:24:19Z</time>
      </trkpt>
      <trkpt lat="44.42731" lon="5.10194">
        <ele>835</ele>
        <time>2021-10-14T08:24:39Z</time>
      </trkpt>
      <trkpt lat="44.42731" lon="5.10194">
        <ele>835</ele>
        <time>2021-10-14T08:24:49Z</time>
      </trkpt>
      <trkpt lat="44.42744" lon="5.10189">
        <ele>834</ele>
        <time>2021-10-14T08:25:09Z</time>
      </trkpt>
      <trkpt lat="44.4276" lon="5.1018">
        <ele>831.4</ele>
        <time>2021-10-14T08:25:33Z</time>
      </trkpt>
      <trkpt lat="44.42761" lon="5.1018">
        <ele>831.5</ele>
        <time>2021-10-14T08:25:55Z</time>
      </trkpt>
      <trkpt lat="44.42753" lon="5.10185">
        <ele>833</ele>
        <time>2021-10-14T08:26:14Z</time>
      </trkpt>
      <trkpt lat="44.42737" lon="5.10188">
        <ele>833.2</ele>
        <time>2021-10-14T08:26:33Z</time>
      </trkpt>
      <trkpt lat="44.42733" lon="5.10191">
        <ele>834.1</ele>
        <time>2021-10-14T08:26:39Z</time>
      </trkpt>
      <trkpt lat="44.42714" lon="5.102">
        <ele>836.2</ele>
        <time>2021-10-14T08:26:57Z</time>
      </trkpt>
      <trkpt lat="44.42701" lon="5.10209">
        <ele>838.5</ele>
        <time>2021-10-14T08:27:12Z</time>
      </trkpt>
      <trkpt lat="44.4269" lon="5.10217">
        <ele>840.5</ele>
        <time>2021-10-14T08:27:26Z</time>
      </trkpt>
      <trkpt lat="44.42679" lon="5.10226">
        <ele>842.8</ele>
        <time>2021-10-14T08:27:44Z</time>
      </trkpt>
      <trkpt lat="44.42673" lon="5.10234">
        <ele>845.1</ele>
        <time>2021-10-14T08:27:59Z</time>
      </trkpt>
      <trkpt lat="44.42665" lon="5.10246">
        <ele>849.3</ele>
        <time>2021-10-14T08:28:17Z</time>
      </trkpt>
      <trkpt lat="44.42659" lon="5.10253">
        <ele>854</ele>
        <time>2021-10-14T08:28:34Z</time>
      </trkpt>
      <trkpt lat="44.42661" lon="5.10255">
        <ele>853.8</ele>
        <time>2021-10-14T08:29:29Z</time>
      </trkpt>
      <trkpt lat="44.42657" lon="5.10253">
        <ele>854.8</ele>
        <time>2021-10-14T08:30:20Z</time>
      </trkpt>
      <trkpt lat="44.4266" lon="5.1025">
        <ele>852.7</ele>
        <time>2021-10-14T08:31:11Z</time>
      </trkpt>
      <trkpt lat="44.4266" lon="5.10252">
        <ele>853.3</ele>
        <time>2021-10-14T08:32:23Z</time>
      </trkpt>
      <trkpt lat="44.42661" lon="5.10256">
        <ele>854.1</ele>
        <time>2021-10-14T08:32:50Z</time>
      </trkpt>
      <trkpt lat="44.42669" lon="5.10262">
        <ele>853.9</ele>
        <time>2021-10-14T08:33:10Z</time>
      </trkpt>
      <trkpt lat="44.42675" lon="5.10264">
        <ele>855.1</ele>
        <time>2021-10-14T08:33:24Z</time>
      </trkpt>
      <trkpt lat="44.42684" lon="5.10269">
        <ele>857.3</ele>
        <time>2021-10-14T08:33:36Z</time>
      </trkpt>
      <trkpt lat="44.4269" lon="5.10271">
        <ele>858.4</ele>
        <time>2021-10-14T08:33:45Z</time>
      </trkpt>
      <trkpt lat="44.42698" lon="5.10275">
        <ele>860.3</ele>
        <time>2021-10-14T08:33:58Z</time>
      </trkpt>
      <trkpt lat="44.42707" lon="5.10277">
        <ele>861.7</ele>
        <time>2021-10-14T08:34:18Z</time>
      </trkpt>
      <trkpt lat="44.42716" lon="5.10281">
        <ele>863.6</ele>
        <time>2021-10-14T08:34:42Z</time>
      </trkpt>
      <trkpt lat="44.42728" lon="5.10287">
        <ele>866.4</ele>
        <time>2021-10-14T08:35:02Z</time>
      </trkpt>
      <trkpt lat="44.42739" lon="5.10292">
        <ele>868.7</ele>
        <time>2021-10-14T08:35:29Z</time>
      </trkpt>
      <trkpt lat="44.42748" lon="5.10293">
        <ele>869.7</ele>
        <time>2021-10-14T08:35:49Z</time>
      </trkpt>
      <trkpt lat="44.42755" lon="5.10295">
        <ele>871.3</ele>
        <time>2021-10-14T08:36:09Z</time>
      </trkpt>
      <trkpt lat="44.42756" lon="5.10295">
        <ele>871.5</ele>
        <time>2021-10-14T08:36:12Z</time>
      </trkpt>
      <trkpt lat="44.42762" lon="5.10297">
        <ele>873</ele>
        <time>2021-10-14T08:36:28Z</time>
      </trkpt>
      <trkpt lat="44.4277" lon="5.10299">
        <ele>875</ele>
        <time>2021-10-14T08:36:47Z</time>
      </trkpt>
      <trkpt lat="44.42776" lon="5.10299">
        <ele>876</ele>
        <time>2021-10-14T08:37:07Z</time>
      </trkpt>
      <trkpt lat="44.42784" lon="5.10301">
        <ele>878</ele>
        <time>2021-10-14T08:37:26Z</time>
      </trkpt>
      <trkpt lat="44.42798" lon="5.10311">
        <ele>883.9</ele>
        <time>2021-10-14T08:37:53Z</time>
      </trkpt>
      <trkpt lat="44.42798" lon="5.10312">
        <ele>884.2</ele>
        <time>2021-10-14T08:37:54Z</time>
      </trkpt>
      <trkpt lat="44.42804" lon="5.10328">
        <ele>891.1</ele>
        <time>2021-10-14T08:38:21Z</time>
      </trkpt>
      <trkpt lat="44.42812" lon="5.10337">
        <ele>896</ele>
        <time>2021-10-14T08:38:42Z</time>
      </trkpt>
      <trkpt lat="44.4282" lon="5.10343">
        <ele>899.7</ele>
        <time>2021-10-14T08:39:03Z</time>
      </trkpt>
      <trkpt lat="44.42829" lon="5.1035">
        <ele>904.1</ele>
        <time>2021-10-14T08:39:22Z</time>
      </trkpt>
      <trkpt lat="44.42837" lon="5.10354">
        <ele>906.9</ele>
        <time>2021-10-14T08:39:41Z</time>
      </trkpt>
      <trkpt lat="44.42843" lon="5.10358">
        <ele>909.1</ele>
        <time>2021-10-14T08:39:58Z</time>
      </trkpt>
      <trkpt lat="44.42854" lon="5.10362">
        <ele>912.2</ele>
        <time>2021-10-14T08:40:16Z</time>
      </trkpt>
      <trkpt lat="44.42866" lon="5.10366">
        <ele>915.5</ele>
        <time>2021-10-14T08:40:39Z</time>
      </trkpt>
      <trkpt lat="44.42879" lon="5.10367">
        <ele>917.8</ele>
        <time>2021-10-14T08:41:00Z</time>
      </trkpt>
      <trkpt lat="44.42893" lon="5.10367">
        <ele>919.9</ele>
        <time>2021-10-14T08:41:20Z</time>
      </trkpt>
      <trkpt lat="44.42903" lon="5.10373">
        <ele>924.3</ele>
        <time>2021-10-14T08:41:41Z</time>
      </trkpt>
      <trkpt lat="44.42912" lon="5.10372">
        <ele>925.2</ele>
        <time>2021-10-14T08:41:59Z</time>
      </trkpt>
      <trkpt lat="44.42923" lon="5.10373">
        <ele>927.3</ele>
        <time>2021-10-14T08:42:15Z</time>
      </trkpt>
      <trkpt lat="44.42932" lon="5.10374">
        <ele>928.9</ele>
        <time>2021-10-14T08:42:32Z</time>
      </trkpt>
      <trkpt lat="44.4294" lon="5.10375">
        <ele>930.4</ele>
        <time>2021-10-14T08:42:48Z</time>
      </trkpt>
      <trkpt lat="44.42948" lon="5.1038">
        <ele>934</ele>
        <time>2021-10-14T08:43:03Z</time>
      </trkpt>
      <trkpt lat="44.42958" lon="5.10383">
        <ele>936.7</ele>
        <time>2021-10-14T08:43:23Z</time>
      </trkpt>
      <trkpt lat="44.42969" lon="5.10387">
        <ele>940</ele>
        <time>2021-10-14T08:43:45Z</time>
      </trkpt>
      <trkpt lat="44.42977" lon="5.10392">
        <ele>943.4</ele>
        <time>2021-10-14T08:44:03Z</time>
      </trkpt>
      <trkpt lat="44.42985" lon="5.10396">
        <ele>946.3</ele>
        <time>2021-10-14T08:44:20Z</time>
      </trkpt>
      <trkpt lat="44.42989" lon="5.104">
        <ele>948.7</ele>
        <time>2021-10-14T08:44:40Z</time>
      </trkpt>
      <trkpt lat="44.42996" lon="5.10405">
        <ele>951.9</ele>
        <time>2021-10-14T08:45:00Z</time>
      </trkpt>
      <trkpt lat="44.43006" lon="5.10409">
        <ele>955.8</ele>
        <time>2021-10-14T08:45:25Z</time>
      </trkpt>
      <trkpt lat="44.43008" lon="5.10409">
        <ele>956.3</ele>
        <time>2021-10-14T08:45:30Z</time>
      </trkpt>
      <trkpt lat="44.43018" lon="5.10415">
        <ele>961.4</ele>
        <time>2021-10-14T08:45:55Z</time>
      </trkpt>
      <trkpt lat="44.4303" lon="5.10417">
        <ele>965</ele>
        <time>2021-10-14T08:46:17Z</time>
      </trkpt>
      <trkpt lat="44.43041" lon="5.10414">
        <ele>966.3</ele>
        <time>2021-10-14T08:46:35Z</time>
      </trkpt>
      <trkpt lat="44.43055" lon="5.10405">
        <ele>966.4</ele>
        <time>2021-10-14T08:46:59Z</time>
      </trkpt>
      <trkpt lat="44.43068" lon="5.10398">
        <ele>967.5</ele>
        <time>2021-10-14T08:47:20Z</time>
      </trkpt>
      <trkpt lat="44.43078" lon="5.10393">
        <ele>968.7</ele>
        <time>2021-10-14T08:47:41Z</time>
      </trkpt>
      <trkpt lat="44.43083" lon="5.1039">
        <ele>969.2</ele>
        <time>2021-10-14T08:48:07Z</time>
      </trkpt>
      <trkpt lat="44.43081" lon="5.10391">
        <ele>968.9</ele>
        <time>2021-10-14T08:49:05Z</time>
      </trkpt>
      <trkpt lat="44.43084" lon="5.10388">
        <ele>969.1</ele>
        <time>2021-10-14T08:49:24Z</time>
      </trkpt>
      <trkpt lat="44.43089" lon="5.10384">
        <ele>970.4</ele>
        <time>2021-10-14T08:49:55Z</time>
      </trkpt>
      <trkpt lat="44.4309" lon="5.10382">
        <ele>970.3</ele>
        <time>2021-10-14T08:50:30Z</time>
      </trkpt>
      <trkpt lat="44.43097" lon="5.10376">
        <ele>972</ele>
        <time>2021-10-14T08:50:54Z</time>
      </trkpt>
      <trkpt lat="44.43104" lon="5.10373">
        <ele>974.6</ele>
        <time>2021-10-14T08:51:11Z</time>
      </trkpt>
      <trkpt lat="44.43112" lon="5.10374">
        <ele>978.8</ele>
        <time>2021-10-14T08:51:27Z</time>
      </trkpt>
      <trkpt lat="44.43119" lon="5.10373">
        <ele>982</ele>
        <time>2021-10-14T08:51:46Z</time>
      </trkpt>
      <trkpt lat="44.43127" lon="5.10371">
        <ele>985.4</ele>
        <time>2021-10-14T08:52:03Z</time>
      </trkpt>
      <trkpt lat="44.43136" lon="5.10366">
        <ele>988.5</ele>
        <time>2021-10-14T08:52:24Z</time>
      </trkpt>
      <trkpt lat="44.43144" lon="5.10361">
        <ele>991.1</ele>
        <time>2021-10-14T08:52:42Z</time>
      </trkpt>
      <trkpt lat="44.43154" lon="5.10349">
        <ele>992.8</ele>
        <time>2021-10-14T08:53:01Z</time>
      </trkpt>
      <trkpt lat="44.43162" lon="5.10344">
        <ele>995.5</ele>
        <time>2021-10-14T08:53:20Z</time>
      </trkpt>
      <trkpt lat="44.43168" lon="5.10341">
        <ele>997.7</ele>
        <time>2021-10-14T08:53:31Z</time>
      </trkpt>
      <trkpt lat="44.43182" lon="5.10336">
        <ele>1004</ele>
        <time>2021-10-14T08:53:55Z</time>
      </trkpt>
      <trkpt lat="44.43197" lon="5.1033">
        <ele>1010.9</ele>
        <time>2021-10-14T08:54:14Z</time>
      </trkpt>
      <trkpt lat="44.43206" lon="5.10321">
        <ele>1014.4</ele>
        <time>2021-10-14T08:54:38Z</time>
      </trkpt>
      <trkpt lat="44.43212" lon="5.10316">
        <ele>1017</ele>
        <time>2021-10-14T08:54:57Z</time>
      </trkpt>
      <trkpt lat="44.43218" lon="5.10307">
        <ele>1019.1</ele>
        <time>2021-10-14T08:55:18Z</time>
      </trkpt>
      <trkpt lat="44.43227" lon="5.10298">
        <ele>1022.9</ele>
        <time>2021-10-14T08:55:40Z</time>
      </trkpt>
      <trkpt lat="44.43232" lon="5.10289">
        <ele>1024.5</ele>
        <time>2021-10-14T08:56:00Z</time>
      </trkpt>
      <trkpt lat="44.43237" lon="5.10273">
        <ele>1025.3</ele>
        <time>2021-10-14T08:56:27Z</time>
      </trkpt>
      <trkpt lat="44.43243" lon="5.10261">
        <ele>1027.2</ele>
        <time>2021-10-14T08:56:52Z</time>
      </trkpt>
      <trkpt lat="44.43246" lon="5.10255">
        <ele>1028.3</ele>
        <time>2021-10-14T08:57:11Z</time>
      </trkpt>
      <trkpt lat="44.43253" lon="5.10251">
        <ele>1031.2</ele>
        <time>2021-10-14T08:57:29Z</time>
      </trkpt>
      <trkpt lat="44.43255" lon="5.10244">
        <ele>1030.7</ele>
        <time>2021-10-14T08:57:49Z</time>
      </trkpt>
      <trkpt lat="44.43259" lon="5.10235">
        <ele>1030.4</ele>
        <time>2021-10-14T08:58:25Z</time>
      </trkpt>
      <trkpt lat="44.43267" lon="5.1023">
        <ele>1032.3</ele>
        <time>2021-10-14T08:58:49Z</time>
      </trkpt>
      <trkpt lat="44.43269" lon="5.10229">
        <ele>1032.8</ele>
        <time>2021-10-14T08:58:53Z</time>
      </trkpt>
      <trkpt lat="44.43282" lon="5.10219">
        <ele>1035.2</ele>
        <time>2021-10-14T08:59:19Z</time>
      </trkpt>
      <trkpt lat="44.4329" lon="5.10217">
        <ele>1037.5</ele>
        <time>2021-10-14T08:59:34Z</time>
      </trkpt>
      <trkpt lat="44.43299" lon="5.10222">
        <ele>1041.6</ele>
        <time>2021-10-14T08:59:59Z</time>
      </trkpt>
      <trkpt lat="44.43301" lon="5.10234">
        <ele>1044.9</ele>
        <time>2021-10-14T09:00:23Z</time>
      </trkpt>
      <trkpt lat="44.43307" lon="5.10234">
        <ele>1047</ele>
        <time>2021-10-14T09:00:43Z</time>
      </trkpt>
      <trkpt lat="44.43314" lon="5.10232">
        <ele>1049</ele>
        <time>2021-10-14T09:01:05Z</time>
      </trkpt>
      <trkpt lat="44.43315" lon="5.1023">
        <ele>1048.9</ele>
        <time>2021-10-14T09:01:27Z</time>
      </trkpt>
      <trkpt lat="44.43314" lon="5.10229">
        <ele>1048.3</ele>
        <time>2021-10-14T09:02:15Z</time>
      </trkpt>
      <trkpt lat="44.43315" lon="5.10235">
        <ele>1050</ele>
        <time>2021-10-14T09:02:38Z</time>
      </trkpt>
      <trkpt lat="44.43315" lon="5.10229">
        <ele>1048.6</ele>
        <time>2021-10-14T09:03:37Z</time>
      </trkpt>
      <trkpt lat="44.43313" lon="5.10227">
        <ele>1047.5</ele>
        <time>2021-10-14T09:04:39Z</time>
      </trkpt>
      <trkpt lat="44.43313" lon="5.10223">
        <ele>1046.6</ele>
        <time>2021-10-14T09:05:05Z</time>
      </trkpt>
      <trkpt lat="44.43323" lon="5.10222">
        <ele>1049.8</ele>
        <time>2021-10-14T09:05:44Z</time>
      </trkpt>
      <trkpt lat="44.43333" lon="5.10223">
        <ele>1053.4</ele>
        <time>2021-10-14T09:06:06Z</time>
      </trkpt>
      <trkpt lat="44.43344" lon="5.10218">
        <ele>1054.7</ele>
        <time>2021-10-14T09:06:24Z</time>
      </trkpt>
      <trkpt lat="44.43361" lon="5.10211">
        <ele>1056.7</ele>
        <time>2021-10-14T09:06:46Z</time>
      </trkpt>
      <trkpt lat="44.4338" lon="5.10207">
        <ele>1059.7</ele>
        <time>2021-10-14T09:07:12Z</time>
      </trkpt>
      <trkpt lat="44.43393" lon="5.10205">
        <ele>1061.9</ele>
        <time>2021-10-14T09:07:30Z</time>
      </trkpt>
      <trkpt lat="44.43408" lon="5.10204">
        <ele>1064.8</ele>
        <time>2021-10-14T09:07:49Z</time>
      </trkpt>
      <trkpt lat="44.43421" lon="5.10204">
        <ele>1066.5</ele>
        <time>2021-10-14T09:08:03Z</time>
      </trkpt>
      <trkpt lat="44.43436" lon="5.10204">
        <ele>1065.9</ele>
        <time>2021-10-14T09:08:21Z</time>
      </trkpt>
      <trkpt lat="44.43446" lon="5.10204">
        <ele>1065.5</ele>
        <time>2021-10-14T09:08:31Z</time>
      </trkpt>
      <trkpt lat="44.43461" lon="5.10206">
        <ele>1065.6</ele>
        <time>2021-10-14T09:08:47Z</time>
      </trkpt>
      <trkpt lat="44.43473" lon="5.10213">
        <ele>1067.6</ele>
        <time>2021-10-14T09:09:03Z</time>
      </trkpt>
      <trkpt lat="44.43486" lon="5.10224">
        <ele>1071</ele>
        <time>2021-10-14T09:09:20Z</time>
      </trkpt>
      <trkpt lat="44.43492" lon="5.10243">
        <ele>1077.6</ele>
        <time>2021-10-14T09:09:41Z</time>
      </trkpt>
      <trkpt lat="44.43497" lon="5.10259">
        <ele>1082.7</ele>
        <time>2021-10-14T09:09:59Z</time>
      </trkpt>
      <trkpt lat="44.43507" lon="5.10273">
        <ele>1085.5</ele>
        <time>2021-10-14T09:10:19Z</time>
      </trkpt>
      <trkpt lat="44.43524" lon="5.10288">
        <ele>1086.9</ele>
        <time>2021-10-14T09:10:43Z</time>
      </trkpt>
      <trkpt lat="44.43541" lon="5.103">
        <ele>1087.5</ele>
        <time>2021-10-14T09:11:06Z</time>
      </trkpt>
      <trkpt lat="44.43552" lon="5.10306">
        <ele>1087.4</ele>
        <time>2021-10-14T09:11:23Z</time>
      </trkpt>
      <trkpt lat="44.43565" lon="5.10321">
        <ele>1090</ele>
        <time>2021-10-14T09:11:44Z</time>
      </trkpt>
      <trkpt lat="44.43577" lon="5.10344">
        <ele>1095.3</ele>
        <time>2021-10-14T09:12:12Z</time>
      </trkpt>
      <trkpt lat="44.4359" lon="5.10363">
        <ele>1099.7</ele>
        <time>2021-10-14T09:12:39Z</time>
      </trkpt>
      <trkpt lat="44.43594" lon="5.10363">
        <ele>1099.4</ele>
        <time>2021-10-14T09:13:08Z</time>
      </trkpt>
      <trkpt lat="44.43605" lon="5.10369">
        <ele>1100.4</ele>
        <time>2021-10-14T09:13:32Z</time>
      </trkpt>
      <trkpt lat="44.43622" lon="5.10378">
        <ele>1102</ele>
        <time>2021-10-14T09:13:52Z</time>
      </trkpt>
      <trkpt lat="44.43637" lon="5.10385">
        <ele>1103.2</ele>
        <time>2021-10-14T09:14:10Z</time>
      </trkpt>
      <trkpt lat="44.4365" lon="5.1039">
        <ele>1103.9</ele>
        <time>2021-10-14T09:14:31Z</time>
      </trkpt>
      <trkpt lat="44.43662" lon="5.10394">
        <ele>1104.4</ele>
        <time>2021-10-14T09:14:51Z</time>
      </trkpt>
      <trkpt lat="44.43674" lon="5.10404">
        <ele>1106.1</ele>
        <time>2021-10-14T09:15:07Z</time>
      </trkpt>
      <trkpt lat="44.43688" lon="5.10414">
        <ele>1106.5</ele>
        <time>2021-10-14T09:15:23Z</time>
      </trkpt>
      <trkpt lat="44.43702" lon="5.1043">
        <ele>1108.1</ele>
        <time>2021-10-14T09:15:43Z</time>
      </trkpt>
      <trkpt lat="44.43717" lon="5.10446">
        <ele>1109.6</ele>
        <time>2021-10-14T09:16:03Z</time>
      </trkpt>
      <trkpt lat="44.43729" lon="5.10459">
        <ele>1111.1</ele>
        <time>2021-10-14T09:16:17Z</time>
      </trkpt>
      <trkpt lat="44.43738" lon="5.10468">
        <ele>1112.2</ele>
        <time>2021-10-14T09:16:28Z</time>
      </trkpt>
      <trkpt lat="44.43744" lon="5.10474">
        <ele>1112.9</ele>
        <time>2021-10-14T09:16:36Z</time>
      </trkpt>
      <trkpt lat="44.43762" lon="5.10485">
        <ele>1112.2</ele>
        <time>2021-10-14T09:16:55Z</time>
      </trkpt>
      <trkpt lat="44.43776" lon="5.10495">
        <ele>1111.8</ele>
        <time>2021-10-14T09:17:12Z</time>
      </trkpt>
      <trkpt lat="44.43795" lon="5.10504">
        <ele>1109.5</ele>
        <time>2021-10-14T09:17:35Z</time>
      </trkpt>
      <trkpt lat="44.43813" lon="5.10512">
        <ele>1107.1</ele>
        <time>2021-10-14T09:17:57Z</time>
      </trkpt>
      <trkpt lat="44.43823" lon="5.10516">
        <ele>1106</ele>
        <time>2021-10-14T09:18:08Z</time>
      </trkpt>
      <trkpt lat="44.43829" lon="5.10521">
        <ele>1106.2</ele>
        <time>2021-10-14T09:18:15Z</time>
      </trkpt>
      <trkpt lat="44.43838" lon="5.10529">
        <ele>1107.2</ele>
        <time>2021-10-14T09:18:31Z</time>
      </trkpt>
      <trkpt lat="44.43851" lon="5.10535">
        <ele>1107.4</ele>
        <time>2021-10-14T09:18:47Z</time>
      </trkpt>
      <trkpt lat="44.43867" lon="5.10544">
        <ele>1108.1</ele>
        <time>2021-10-14T09:19:07Z</time>
      </trkpt>
      <trkpt lat="44.43879" lon="5.10546">
        <ele>1107.3</ele>
        <time>2021-10-14T09:19:24Z</time>
      </trkpt>
      <trkpt lat="44.43894" lon="5.10555">
        <ele>1108</ele>
        <time>2021-10-14T09:19:46Z</time>
      </trkpt>
      <trkpt lat="44.43914" lon="5.10564">
        <ele>1108</ele>
        <time>2021-10-14T09:20:09Z</time>
      </trkpt>
      <trkpt lat="44.43924" lon="5.10574">
        <ele>1110.7</ele>
        <time>2021-10-14T09:20:31Z</time>
      </trkpt>
      <trkpt lat="44.43932" lon="5.10586">
        <ele>1113.6</ele>
        <time>2021-10-14T09:20:50Z</time>
      </trkpt>
      <trkpt lat="44.43939" lon="5.10592">
        <ele>1114.1</ele>
        <time>2021-10-14T09:21:05Z</time>
      </trkpt>
      <trkpt lat="44.43943" lon="5.10603">
        <ele>1114.6</ele>
        <time>2021-10-14T09:21:25Z</time>
      </trkpt>
      <trkpt lat="44.43949" lon="5.10614">
        <ele>1115.4</ele>
        <time>2021-10-14T09:21:46Z</time>
      </trkpt>
      <trkpt lat="44.43956" lon="5.10624">
        <ele>1116.5</ele>
        <time>2021-10-14T09:22:04Z</time>
      </trkpt>
      <trkpt lat="44.43965" lon="5.10637">
        <ele>1118.1</ele>
        <time>2021-10-14T09:22:27Z</time>
      </trkpt>
      <trkpt lat="44.43973" lon="5.10646">
        <ele>1119.6</ele>
        <time>2021-10-14T09:22:43Z</time>
      </trkpt>
      <trkpt lat="44.43981" lon="5.10653">
        <ele>1121.1</ele>
        <time>2021-10-14T09:23:01Z</time>
      </trkpt>
      <trkpt lat="44.43974" lon="5.10657">
        <ele>1120.5</ele>
        <time>2021-10-14T09:23:17Z</time>
      </trkpt>
      <trkpt lat="44.43964" lon="5.10658">
        <ele>1119.3</ele>
        <time>2021-10-14T09:23:33Z</time>
      </trkpt>
      <trkpt lat="44.43959" lon="5.10658">
        <ele>1118.6</ele>
        <time>2021-10-14T09:23:52Z</time>
      </trkpt>
      <trkpt lat="44.43959" lon="5.1066">
        <ele>1118.7</ele>
        <time>2021-10-14T09:24:31Z</time>
      </trkpt>
      <trkpt lat="44.43959" lon="5.1066">
        <ele>1118.7</ele>
        <time>2021-10-14T09:25:30Z</time>
      </trkpt>
      <trkpt lat="44.43958" lon="5.10659">
        <ele>1118.5</ele>
        <time>2021-10-14T09:26:18Z</time>
      </trkpt>
      <trkpt lat="44.43959" lon="5.10661">
        <ele>1118.8</ele>
        <time>2021-10-14T09:27:38Z</time>
      </trkpt>
      <trkpt lat="44.43958" lon="5.10662">
        <ele>1118.7</ele>
        <time>2021-10-14T09:28:51Z</time>
      </trkpt>
      <trkpt lat="44.43958" lon="5.10661">
        <ele>1118.6</ele>
        <time>2021-10-14T09:30:05Z</time>
      </trkpt>
      <trkpt lat="44.43957" lon="5.1066">
        <ele>1118.5</ele>
        <time>2021-10-14T09:31:01Z</time>
      </trkpt>
      <trkpt lat="44.43956" lon="5.1066">
        <ele>1118.3</ele>
        <time>2021-10-14T09:31:53Z</time>
      </trkpt>
      <trkpt lat="44.43959" lon="5.10663">
        <ele>1118.9</ele>
        <time>2021-10-14T09:32:32Z</time>
      </trkpt>
      <trkpt lat="44.4396" lon="5.10662">
        <ele>1119</ele>
        <time>2021-10-14T09:33:42Z</time>
      </trkpt>
      <trkpt lat="44.43963" lon="5.10661">
        <ele>1119.3</ele>
        <time>2021-10-14T09:34:06Z</time>
      </trkpt>
      <trkpt lat="44.43968" lon="5.10658">
        <ele>1119.8</ele>
        <time>2021-10-14T09:34:17Z</time>
      </trkpt>
      <trkpt lat="44.43976" lon="5.10664">
        <ele>1121.3</ele>
        <time>2021-10-14T09:34:28Z</time>
      </trkpt>
      <trkpt lat="44.43988" lon="5.10664">
        <ele>1123</ele>
        <time>2021-10-14T09:34:44Z</time>
      </trkpt>
      <trkpt lat="44.43995" lon="5.10663">
        <ele>1123.9</ele>
        <time>2021-10-14T09:34:52Z</time>
      </trkpt>
      <trkpt lat="44.44004" lon="5.10658">
        <ele>1125</ele>
        <time>2021-10-14T09:35:05Z</time>
      </trkpt>
      <trkpt lat="44.44015" lon="5.10648">
        <ele>1126.7</ele>
        <time>2021-10-14T09:35:22Z</time>
      </trkpt>
      <trkpt lat="44.44027" lon="5.10648">
        <ele>1129.7</ele>
        <time>2021-10-14T09:35:41Z</time>
      </trkpt>
      <trkpt lat="44.4404" lon="5.1065">
        <ele>1133.1</ele>
        <time>2021-10-14T09:36:05Z</time>
      </trkpt>
      <trkpt lat="44.44048" lon="5.10656">
        <ele>1135.6</ele>
        <time>2021-10-14T09:36:23Z</time>
      </trkpt>
      <trkpt lat="44.44054" lon="5.10663">
        <ele>1137.6</ele>
        <time>2021-10-14T09:36:41Z</time>
      </trkpt>
      <trkpt lat="44.4406" lon="5.10668">
        <ele>1139</ele>
        <time>2021-10-14T09:36:59Z</time>
      </trkpt>
      <trkpt lat="44.4406" lon="5.10669">
        <ele>1138.7</ele>
        <time>2021-10-14T09:37:01Z</time>
      </trkpt>
      <trkpt lat="44.44069" lon="5.10664">
        <ele>1141.4</ele>
        <time>2021-10-14T09:37:21Z</time>
      </trkpt>
      <trkpt lat="44.4408" lon="5.10668">
        <ele>1143.8</ele>
        <time>2021-10-14T09:37:45Z</time>
      </trkpt>
      <trkpt lat="44.44086" lon="5.10676">
        <ele>1142.4</ele>
        <time>2021-10-14T09:38:06Z</time>
      </trkpt>
      <trkpt lat="44.4409" lon="5.10682">
        <ele>1141</ele>
        <time>2021-10-14T09:38:22Z</time>
      </trkpt>
      <trkpt lat="44.44096" lon="5.10681">
        <ele>1142.2</ele>
        <time>2021-10-14T09:38:36Z</time>
      </trkpt>
      <trkpt lat="44.44102" lon="5.10681">
        <ele>1143.1</ele>
        <time>2021-10-14T09:38:52Z</time>
      </trkpt>
      <trkpt lat="44.44111" lon="5.10678">
        <ele>1145.4</ele>
        <time>2021-10-14T09:39:12Z</time>
      </trkpt>
      <trkpt lat="44.44119" lon="5.10677">
        <ele>1147</ele>
        <time>2021-10-14T09:39:32Z</time>
      </trkpt>
      <trkpt lat="44.44125" lon="5.10677">
        <ele>1147.8</ele>
        <time>2021-10-14T09:39:47Z</time>
      </trkpt>
      <trkpt lat="44.44132" lon="5.10676">
        <ele>1149.2</ele>
        <time>2021-10-14T09:40:06Z</time>
      </trkpt>
      <trkpt lat="44.44138" lon="5.10672">
        <ele>1151.6</ele>
        <time>2021-10-14T09:40:22Z</time>
      </trkpt>
      <trkpt lat="44.44144" lon="5.10667">
        <ele>1154.3</ele>
        <time>2021-10-14T09:40:37Z</time>
      </trkpt>
      <trkpt lat="44.44151" lon="5.10666">
        <ele>1155.5</ele>
        <time>2021-10-14T09:40:56Z</time>
      </trkpt>
      <trkpt lat="44.44161" lon="5.10662">
        <ele>1156.6</ele>
        <time>2021-10-14T09:41:14Z</time>
      </trkpt>
      <trkpt lat="44.4417" lon="5.10662">
        <ele>1157.3</ele>
        <time>2021-10-14T09:41:30Z</time>
      </trkpt>
      <trkpt lat="44.44179" lon="5.10658">
        <ele>1156.6</ele>
        <time>2021-10-14T09:41:46Z</time>
      </trkpt>
      <trkpt lat="44.44188" lon="5.10656">
        <ele>1156.2</ele>
        <time>2021-10-14T09:42:04Z</time>
      </trkpt>
      <trkpt lat="44.44196" lon="5.10654">
        <ele>1155.9</ele>
        <time>2021-10-14T09:42:20Z</time>
      </trkpt>
      <trkpt lat="44.44204" lon="5.10651">
        <ele>1155.6</ele>
        <time>2021-10-14T09:42:36Z</time>
      </trkpt>
      <trkpt lat="44.44217" lon="5.10648">
        <ele>1155.4</ele>
        <time>2021-10-14T09:42:53Z</time>
      </trkpt>
      <trkpt lat="44.44226" lon="5.10645">
        <ele>1155.3</ele>
        <time>2021-10-14T09:43:08Z</time>
      </trkpt>
      <trkpt lat="44.44236" lon="5.10644">
        <ele>1155.3</ele>
        <time>2021-10-14T09:43:22Z</time>
      </trkpt>
      <trkpt lat="44.44248" lon="5.10639">
        <ele>1155.6</ele>
        <time>2021-10-14T09:43:41Z</time>
      </trkpt>
      <trkpt lat="44.44261" lon="5.10635">
        <ele>1155.7</ele>
        <time>2021-10-14T09:43:58Z</time>
      </trkpt>
      <trkpt lat="44.44276" lon="5.10631">
        <ele>1155.7</ele>
        <time>2021-10-14T09:44:18Z</time>
      </trkpt>
      <trkpt lat="44.44289" lon="5.10629">
        <ele>1155.7</ele>
        <time>2021-10-14T09:44:35Z</time>
      </trkpt>
      <trkpt lat="44.44304" lon="5.10627">
        <ele>1155.7</ele>
        <time>2021-10-14T09:44:55Z</time>
      </trkpt>
      <trkpt lat="44.44308" lon="5.10627">
        <ele>1155.6</ele>
        <time>2021-10-14T09:45:00Z</time>
      </trkpt>
      <trkpt lat="44.44319" lon="5.10629">
        <ele>1155.3</ele>
        <time>2021-10-14T09:45:15Z</time>
      </trkpt>
      <trkpt lat="44.44328" lon="5.10629">
        <ele>1155.1</ele>
        <time>2021-10-14T09:45:29Z</time>
      </trkpt>
      <trkpt lat="44.44337" lon="5.10627">
        <ele>1154.8</ele>
        <time>2021-10-14T09:45:46Z</time>
      </trkpt>
      <trkpt lat="44.44348" lon="5.10622">
        <ele>1153.9</ele>
        <time>2021-10-14T09:46:06Z</time>
      </trkpt>
      <trkpt lat="44.44359" lon="5.10617">
        <ele>1153.3</ele>
        <time>2021-10-14T09:46:21Z</time>
      </trkpt>
      <trkpt lat="44.44368" lon="5.10613">
        <ele>1152.9</ele>
        <time>2021-10-14T09:46:34Z</time>
      </trkpt>
      <trkpt lat="44.44376" lon="5.10608">
        <ele>1153</ele>
        <time>2021-10-14T09:46:48Z</time>
      </trkpt>
      <trkpt lat="44.44385" lon="5.10598">
        <ele>1154.3</ele>
        <time>2021-10-14T09:47:04Z</time>
      </trkpt>
      <trkpt lat="44.44394" lon="5.10587">
        <ele>1156.2</ele>
        <time>2021-10-14T09:47:21Z</time>
      </trkpt>
      <trkpt lat="44.44406" lon="5.10583">
        <ele>1156.5</ele>
        <time>2021-10-14T09:47:38Z</time>
      </trkpt>
      <trkpt lat="44.44419" lon="5.10582">
        <ele>1155.4</ele>
        <time>2021-10-14T09:47:58Z</time>
      </trkpt>
      <trkpt lat="44.4443" lon="5.10577">
        <ele>1152.9</ele>
        <time>2021-10-14T09:48:18Z</time>
      </trkpt>
      <trkpt lat="44.4444" lon="5.10571">
        <ele>1151.1</ele>
        <time>2021-10-14T09:48:33Z</time>
      </trkpt>
      <trkpt lat="44.44449" lon="5.10566">
        <ele>1149.9</ele>
        <time>2021-10-14T09:48:49Z</time>
      </trkpt>
      <trkpt lat="44.4446" lon="5.10559">
        <ele>1149.1</ele>
        <time>2021-10-14T09:49:05Z</time>
      </trkpt>
      <trkpt lat="44.4447" lon="5.10556">
        <ele>1148.6</ele>
        <time>2021-10-14T09:49:22Z</time>
      </trkpt>
      <trkpt lat="44.44484" lon="5.10552">
        <ele>1148.2</ele>
        <time>2021-10-14T09:49:45Z</time>
      </trkpt>
      <trkpt lat="44.44492" lon="5.10543">
        <ele>1149.8</ele>
        <time>2021-10-14T09:50:03Z</time>
      </trkpt>
      <trkpt lat="44.445" lon="5.10539">
        <ele>1150.7</ele>
        <time>2021-10-14T09:50:18Z</time>
      </trkpt>
      <trkpt lat="44.44506" lon="5.10536">
        <ele>1149.6</ele>
        <time>2021-10-14T09:50:31Z</time>
      </trkpt>
      <trkpt lat="44.44514" lon="5.10528">
        <ele>1149.2</ele>
        <time>2021-10-14T09:50:49Z</time>
      </trkpt>
      <trkpt lat="44.44522" lon="5.10526">
        <ele>1147.3</ele>
        <time>2021-10-14T09:51:03Z</time>
      </trkpt>
      <trkpt lat="44.44526" lon="5.10525">
        <ele>1146.4</ele>
        <time>2021-10-14T09:51:18Z</time>
      </trkpt>
      <trkpt lat="44.44529" lon="5.10521">
        <ele>1146.7</ele>
        <time>2021-10-14T09:51:46Z</time>
      </trkpt>
      <trkpt lat="44.4453" lon="5.10524">
        <ele>1145.5</ele>
        <time>2021-10-14T09:52:13Z</time>
      </trkpt>
      <trkpt lat="44.4453" lon="5.10523">
        <ele>1145.8</ele>
        <time>2021-10-14T09:52:51Z</time>
      </trkpt>
      <trkpt lat="44.4453" lon="5.10522">
        <ele>1146.1</ele>
        <time>2021-10-14T09:53:28Z</time>
      </trkpt>
      <trkpt lat="44.44529" lon="5.10521">
        <ele>1146.7</ele>
        <time>2021-10-14T09:53:50Z</time>
      </trkpt>
      <trkpt lat="44.44535" lon="5.10511">
        <ele>1147.9</ele>
        <time>2021-10-14T09:54:10Z</time>
      </trkpt>
      <trkpt lat="44.44542" lon="5.10502">
        <ele>1148.8</ele>
        <time>2021-10-14T09:54:27Z</time>
      </trkpt>
      <trkpt lat="44.4455" lon="5.10492">
        <ele>1146.5</ele>
        <time>2021-10-14T09:54:43Z</time>
      </trkpt>
      <trkpt lat="44.44556" lon="5.10488">
        <ele>1144.7</ele>
        <time>2021-10-14T09:54:51Z</time>
      </trkpt>
      <trkpt lat="44.44569" lon="5.10482">
        <ele>1141.4</ele>
        <time>2021-10-14T09:55:09Z</time>
      </trkpt>
      <trkpt lat="44.44583" lon="5.10473">
        <ele>1138.4</ele>
        <time>2021-10-14T09:55:32Z</time>
      </trkpt>
      <trkpt lat="44.44593" lon="5.10467">
        <ele>1136.4</ele>
        <time>2021-10-14T09:55:50Z</time>
      </trkpt>
      <trkpt lat="44.44605" lon="5.10458">
        <ele>1134.6</ele>
        <time>2021-10-14T09:56:10Z</time>
      </trkpt>
      <trkpt lat="44.44621" lon="5.1045">
        <ele>1132.9</ele>
        <time>2021-10-14T09:56:32Z</time>
      </trkpt>
      <trkpt lat="44.44637" lon="5.10436">
        <ele>1133.3</ele>
        <time>2021-10-14T09:56:52Z</time>
      </trkpt>
      <trkpt lat="44.4465" lon="5.10422">
        <ele>1135.3</ele>
        <time>2021-10-14T09:57:10Z</time>
      </trkpt>
      <trkpt lat="44.44664" lon="5.10409">
        <ele>1136.4</ele>
        <time>2021-10-14T09:57:27Z</time>
      </trkpt>
      <trkpt lat="44.44674" lon="5.104">
        <ele>1137.1</ele>
        <time>2021-10-14T09:57:43Z</time>
      </trkpt>
      <trkpt lat="44.44683" lon="5.10386">
        <ele>1139</ele>
        <time>2021-10-14T09:58:00Z</time>
      </trkpt>
      <trkpt lat="44.4469" lon="5.10375">
        <ele>1141.1</ele>
        <time>2021-10-14T09:58:15Z</time>
      </trkpt>
      <trkpt lat="44.44696" lon="5.10365">
        <ele>1143.5</ele>
        <time>2021-10-14T09:58:30Z</time>
      </trkpt>
      <trkpt lat="44.44704" lon="5.10359">
        <ele>1145.9</ele>
        <time>2021-10-14T09:58:44Z</time>
      </trkpt>
      <trkpt lat="44.44709" lon="5.10356">
        <ele>1147.5</ele>
        <time>2021-10-14T09:58:58Z</time>
      </trkpt>
      <trkpt lat="44.44715" lon="5.10355">
        <ele>1149</ele>
        <time>2021-10-14T09:59:13Z</time>
      </trkpt>
      <trkpt lat="44.44721" lon="5.10352">
        <ele>1151</ele>
        <time>2021-10-14T09:59:29Z</time>
      </trkpt>
      <trkpt lat="44.44727" lon="5.10349">
        <ele>1153.1</ele>
        <time>2021-10-14T09:59:44Z</time>
      </trkpt>
      <trkpt lat="44.44733" lon="5.10345">
        <ele>1155.6</ele>
        <time>2021-10-14T10:00:01Z</time>
      </trkpt>
      <trkpt lat="44.44742" lon="5.10342">
        <ele>1158.8</ele>
        <time>2021-10-14T10:00:20Z</time>
      </trkpt>
      <trkpt lat="44.44749" lon="5.10338">
        <ele>1162</ele>
        <time>2021-10-14T10:00:39Z</time>
      </trkpt>
      <trkpt lat="44.44755" lon="5.10333">
        <ele>1164.8</ele>
        <time>2021-10-14T10:00:56Z</time>
      </trkpt>
      <trkpt lat="44.44761" lon="5.10329">
        <ele>1165.5</ele>
        <time>2021-10-14T10:01:11Z</time>
      </trkpt>
      <trkpt lat="44.4477" lon="5.10326">
        <ele>1166.9</ele>
        <time>2021-10-14T10:01:29Z</time>
      </trkpt>
      <trkpt lat="44.44777" lon="5.10328">
        <ele>1168.3</ele>
        <time>2021-10-14T10:01:47Z</time>
      </trkpt>
      <trkpt lat="44.4478" lon="5.10328">
        <ele>1168.8</ele>
        <time>2021-10-14T10:02:04Z</time>
      </trkpt>
      <trkpt lat="44.44785" lon="5.10328">
        <ele>1169.7</ele>
        <time>2021-10-14T10:02:21Z</time>
      </trkpt>
      <trkpt lat="44.44792" lon="5.10323">
        <ele>1170.9</ele>
        <time>2021-10-14T10:02:39Z</time>
      </trkpt>
      <trkpt lat="44.44799" lon="5.10321">
        <ele>1172.2</ele>
        <time>2021-10-14T10:02:54Z</time>
      </trkpt>
      <trkpt lat="44.44806" lon="5.10317">
        <ele>1173.6</ele>
        <time>2021-10-14T10:03:13Z</time>
      </trkpt>
      <trkpt lat="44.44815" lon="5.10314">
        <ele>1175.5</ele>
        <time>2021-10-14T10:03:35Z</time>
      </trkpt>
      <trkpt lat="44.44821" lon="5.10314">
        <ele>1176.8</ele>
        <time>2021-10-14T10:03:51Z</time>
      </trkpt>
      <trkpt lat="44.44826" lon="5.10313">
        <ele>1177.9</ele>
        <time>2021-10-14T10:04:08Z</time>
      </trkpt>
      <trkpt lat="44.44833" lon="5.10313">
        <ele>1179.4</ele>
        <time>2021-10-14T10:04:29Z</time>
      </trkpt>
      <trkpt lat="44.44841" lon="5.10311">
        <ele>1181.4</ele>
        <time>2021-10-14T10:04:46Z</time>
      </trkpt>
      <trkpt lat="44.44848" lon="5.1031">
        <ele>1183.1</ele>
        <time>2021-10-14T10:05:02Z</time>
      </trkpt>
      <trkpt lat="44.44855" lon="5.10308">
        <ele>1184.9</ele>
        <time>2021-10-14T10:05:18Z</time>
      </trkpt>
      <trkpt lat="44.44865" lon="5.10305">
        <ele>1187.5</ele>
        <time>2021-10-14T10:05:36Z</time>
      </trkpt>
      <trkpt lat="44.44873" lon="5.10302">
        <ele>1189.8</ele>
        <time>2021-10-14T10:05:52Z</time>
      </trkpt>
      <trkpt lat="44.4488" lon="5.10299">
        <ele>1191.8</ele>
        <time>2021-10-14T10:06:07Z</time>
      </trkpt>
      <trkpt lat="44.44884" lon="5.10299">
        <ele>1192.8</ele>
        <time>2021-10-14T10:06:22Z</time>
      </trkpt>
      <trkpt lat="44.4489" lon="5.103">
        <ele>1194.1</ele>
        <time>2021-10-14T10:06:49Z</time>
      </trkpt>
      <trkpt lat="44.44896" lon="5.10301">
        <ele>1195.4</ele>
        <time>2021-10-14T10:07:06Z</time>
      </trkpt>
      <trkpt lat="44.44902" lon="5.10301">
        <ele>1196.9</ele>
        <time>2021-10-14T10:07:23Z</time>
      </trkpt>
      <trkpt lat="44.44907" lon="5.103">
        <ele>1198.3</ele>
        <time>2021-10-14T10:07:37Z</time>
      </trkpt>
      <trkpt lat="44.44912" lon="5.10301">
        <ele>1199.3</ele>
        <time>2021-10-14T10:07:54Z</time>
      </trkpt>
      <trkpt lat="44.44918" lon="5.103">
        <ele>1200.7</ele>
        <time>2021-10-14T10:08:09Z</time>
      </trkpt>
      <trkpt lat="44.44924" lon="5.103">
        <ele>1201.2</ele>
        <time>2021-10-14T10:08:26Z</time>
      </trkpt>
      <trkpt lat="44.44931" lon="5.10298">
        <ele>1202.3</ele>
        <time>2021-10-14T10:08:42Z</time>
      </trkpt>
      <trkpt lat="44.44938" lon="5.10296">
        <ele>1203.4</ele>
        <time>2021-10-14T10:08:59Z</time>
      </trkpt>
      <trkpt lat="44.44943" lon="5.10292">
        <ele>1205.1</ele>
        <time>2021-10-14T10:09:13Z</time>
      </trkpt>
      <trkpt lat="44.44948" lon="5.10289">
        <ele>1206.6</ele>
        <time>2021-10-14T10:09:29Z</time>
      </trkpt>
      <trkpt lat="44.44955" lon="5.10289">
        <ele>1207.5</ele>
        <time>2021-10-14T10:09:48Z</time>
      </trkpt>
      <trkpt lat="44.44962" lon="5.10288">
        <ele>1208.8</ele>
        <time>2021-10-14T10:10:02Z</time>
      </trkpt>
      <trkpt lat="44.44969" lon="5.10286">
        <ele>1210.5</ele>
        <time>2021-10-14T10:10:17Z</time>
      </trkpt>
      <trkpt lat="44.44975" lon="5.10285">
        <ele>1211.8</ele>
        <time>2021-10-14T10:10:32Z</time>
      </trkpt>
      <trkpt lat="44.44979" lon="5.10284">
        <ele>1212.8</ele>
        <time>2021-10-14T10:10:47Z</time>
      </trkpt>
      <trkpt lat="44.44986" lon="5.10286">
        <ele>1213</ele>
        <time>2021-10-14T10:11:06Z</time>
      </trkpt>
      <trkpt lat="44.44993" lon="5.10285">
        <ele>1214.5</ele>
        <time>2021-10-14T10:11:23Z</time>
      </trkpt>
      <trkpt lat="44.44999" lon="5.10283">
        <ele>1216.4</ele>
        <time>2021-10-14T10:11:38Z</time>
      </trkpt>
      <trkpt lat="44.45006" lon="5.10275">
        <ele>1221.9</ele>
        <time>2021-10-14T10:11:54Z</time>
      </trkpt>
      <trkpt lat="44.45012" lon="5.10271">
        <ele>1225.2</ele>
        <time>2021-10-14T10:12:09Z</time>
      </trkpt>
      <trkpt lat="44.4502" lon="5.10269">
        <ele>1227.9</ele>
        <time>2021-10-14T10:12:27Z</time>
      </trkpt>
      <trkpt lat="44.4503" lon="5.1026">
        <ele>1235.4</ele>
        <time>2021-10-14T10:12:49Z</time>
      </trkpt>
      <trkpt lat="44.45039" lon="5.10257">
        <ele>1239.3</ele>
        <time>2021-10-14T10:13:10Z</time>
      </trkpt>
      <trkpt lat="44.45045" lon="5.10255">
        <ele>1242</ele>
        <time>2021-10-14T10:13:27Z</time>
      </trkpt>
      <trkpt lat="44.45048" lon="5.10253">
        <ele>1244.1</ele>
        <time>2021-10-14T10:14:34Z</time>
      </trkpt>
      <trkpt lat="44.45057" lon="5.10247">
        <ele>1247.9</ele>
        <time>2021-10-14T10:14:51Z</time>
      </trkpt>
      <trkpt lat="44.45066" lon="5.10243">
        <ele>1249.7</ele>
        <time>2021-10-14T10:15:08Z</time>
      </trkpt>
      <trkpt lat="44.45077" lon="5.1024">
        <ele>1252.1</ele>
        <time>2021-10-14T10:15:23Z</time>
      </trkpt>
      <trkpt lat="44.4509" lon="5.10238">
        <ele>1254.9</ele>
        <time>2021-10-14T10:15:46Z</time>
      </trkpt>
      <trkpt lat="44.45099" lon="5.10237">
        <ele>1256.7</ele>
        <time>2021-10-14T10:16:01Z</time>
      </trkpt>
      <trkpt lat="44.45106" lon="5.10237">
        <ele>1258.1</ele>
        <time>2021-10-14T10:16:16Z</time>
      </trkpt>
      <trkpt lat="44.45113" lon="5.10236">
        <ele>1259.5</ele>
        <time>2021-10-14T10:16:31Z</time>
      </trkpt>
      <trkpt lat="44.4512" lon="5.10236">
        <ele>1261</ele>
        <time>2021-10-14T10:16:46Z</time>
      </trkpt>
      <trkpt lat="44.45129" lon="5.10233">
        <ele>1262.6</ele>
        <time>2021-10-14T10:17:04Z</time>
      </trkpt>
      <trkpt lat="44.45138" lon="5.1023">
        <ele>1264.4</ele>
        <time>2021-10-14T10:17:20Z</time>
      </trkpt>
      <trkpt lat="44.45147" lon="5.10227">
        <ele>1266.2</ele>
        <time>2021-10-14T10:17:36Z</time>
      </trkpt>
      <trkpt lat="44.45155" lon="5.10223">
        <ele>1267.7</ele>
        <time>2021-10-14T10:17:54Z</time>
      </trkpt>
      <trkpt lat="44.45163" lon="5.1022">
        <ele>1269.4</ele>
        <time>2021-10-14T10:18:10Z</time>
      </trkpt>
      <trkpt lat="44.45169" lon="5.10219">
        <ele>1270.5</ele>
        <time>2021-10-14T10:18:26Z</time>
      </trkpt>
      <trkpt lat="44.45172" lon="5.10219">
        <ele>1270.8</ele>
        <time>2021-10-14T10:18:44Z</time>
      </trkpt>
      <trkpt lat="44.45178" lon="5.10217">
        <ele>1271.4</ele>
        <time>2021-10-14T10:19:08Z</time>
      </trkpt>
      <trkpt lat="44.4518" lon="5.10216">
        <ele>1271.6</ele>
        <time>2021-10-14T10:19:34Z</time>
      </trkpt>
      <trkpt lat="44.4519" lon="5.10215">
        <ele>1272.7</ele>
        <time>2021-10-14T10:19:53Z</time>
      </trkpt>
      <trkpt lat="44.45195" lon="5.10216">
        <ele>1273.2</ele>
        <time>2021-10-14T10:20:10Z</time>
      </trkpt>
      <trkpt lat="44.45205" lon="5.10214">
        <ele>1274.5</ele>
        <time>2021-10-14T10:20:28Z</time>
      </trkpt>
      <trkpt lat="44.45211" lon="5.10212">
        <ele>1275.4</ele>
        <time>2021-10-14T10:20:45Z</time>
      </trkpt>
      <trkpt lat="44.45217" lon="5.10212">
        <ele>1276.1</ele>
        <time>2021-10-14T10:21:03Z</time>
      </trkpt>
      <trkpt lat="44.45223" lon="5.10211">
        <ele>1277</ele>
        <time>2021-10-14T10:21:30Z</time>
      </trkpt>
      <trkpt lat="44.45232" lon="5.10208">
        <ele>1278.7</ele>
        <time>2021-10-14T10:21:48Z</time>
      </trkpt>
      <trkpt lat="44.45241" lon="5.10206">
        <ele>1280.3</ele>
        <time>2021-10-14T10:22:04Z</time>
      </trkpt>
      <trkpt lat="44.45251" lon="5.10204">
        <ele>1282.1</ele>
        <time>2021-10-14T10:22:21Z</time>
      </trkpt>
      <trkpt lat="44.45257" lon="5.10205">
        <ele>1282.3</ele>
        <time>2021-10-14T10:22:39Z</time>
      </trkpt>
      <trkpt lat="44.45261" lon="5.10203">
        <ele>1283.1</ele>
        <time>2021-10-14T10:23:11Z</time>
      </trkpt>
      <trkpt lat="44.45265" lon="5.10201">
        <ele>1284</ele>
        <time>2021-10-14T10:23:43Z</time>
      </trkpt>
      <trkpt lat="44.45266" lon="5.102">
        <ele>1284.3</ele>
        <time>2021-10-14T10:24:05Z</time>
      </trkpt>
      <trkpt lat="44.45272" lon="5.10199">
        <ele>1285.1</ele>
        <time>2021-10-14T10:24:26Z</time>
      </trkpt>
      <trkpt lat="44.45275" lon="5.10199">
        <ele>1285.3</ele>
        <time>2021-10-14T10:24:39Z</time>
      </trkpt>
      <trkpt lat="44.45281" lon="5.10196">
        <ele>1286.7</ele>
        <time>2021-10-14T10:24:54Z</time>
      </trkpt>
      <trkpt lat="44.45283" lon="5.10195">
        <ele>1287.2</ele>
        <time>2021-10-14T10:25:13Z</time>
      </trkpt>
      <trkpt lat="44.4529" lon="5.10194">
        <ele>1288.2</ele>
        <time>2021-10-14T10:25:29Z</time>
      </trkpt>
      <trkpt lat="44.45294" lon="5.10195">
        <ele>1288.2</ele>
        <time>2021-10-14T10:25:56Z</time>
      </trkpt>
      <trkpt lat="44.45305" lon="5.10192">
        <ele>1290.2</ele>
        <time>2021-10-14T10:26:14Z</time>
      </trkpt>
      <trkpt lat="44.45317" lon="5.10186">
        <ele>1293.6</ele>
        <time>2021-10-14T10:26:32Z</time>
      </trkpt>
      <trkpt lat="44.45329" lon="5.10183">
        <ele>1296</ele>
        <time>2021-10-14T10:26:49Z</time>
      </trkpt>
      <trkpt lat="44.45339" lon="5.10181">
        <ele>1297.9</ele>
        <time>2021-10-14T10:27:03Z</time>
      </trkpt>
      <trkpt lat="44.4535" lon="5.10179">
        <ele>1299.8</ele>
        <time>2021-10-14T10:27:19Z</time>
      </trkpt>
      <trkpt lat="44.45365" lon="5.1018">
        <ele>1301</ele>
        <time>2021-10-14T10:27:41Z</time>
      </trkpt>
      <trkpt lat="44.45375" lon="5.10181">
        <ele>1301.7</ele>
        <time>2021-10-14T10:27:57Z</time>
      </trkpt>
      <trkpt lat="44.4539" lon="5.10182">
        <ele>1302.9</ele>
        <time>2021-10-14T10:28:17Z</time>
      </trkpt>
      <trkpt lat="44.45405" lon="5.10182">
        <ele>1304.5</ele>
        <time>2021-10-14T10:28:35Z</time>
      </trkpt>
      <trkpt lat="44.45423" lon="5.10184">
        <ele>1305.6</ele>
        <time>2021-10-14T10:28:56Z</time>
      </trkpt>
      <trkpt lat="44.45435" lon="5.10187">
        <ele>1305.6</ele>
        <time>2021-10-14T10:29:12Z</time>
      </trkpt>
      <trkpt lat="44.45448" lon="5.10191">
        <ele>1305.1</ele>
        <time>2021-10-14T10:29:31Z</time>
      </trkpt>
      <trkpt lat="44.45454" lon="5.10191">
        <ele>1305.5</ele>
        <time>2021-10-14T10:29:48Z</time>
      </trkpt>
      <trkpt lat="44.45458" lon="5.10191">
        <ele>1305.7</ele>
        <time>2021-10-14T10:30:05Z</time>
      </trkpt>
      <trkpt lat="44.45462" lon="5.10192">
        <ele>1305.7</ele>
        <time>2021-10-14T10:30:23Z</time>
      </trkpt>
      <trkpt lat="44.45473" lon="5.10193">
        <ele>1306</ele>
        <time>2021-10-14T10:30:41Z</time>
      </trkpt>
      <trkpt lat="44.45483" lon="5.1019">
        <ele>1307.6</ele>
        <time>2021-10-14T10:30:56Z</time>
      </trkpt>
      <trkpt lat="44.45494" lon="5.10185">
        <ele>1310</ele>
        <time>2021-10-14T10:31:24Z</time>
      </trkpt>
      <trkpt lat="44.45509" lon="5.10188">
        <ele>1308</ele>
        <time>2021-10-14T10:31:46Z</time>
      </trkpt>
      <trkpt lat="44.45519" lon="5.10185">
        <ele>1307.7</ele>
        <time>2021-10-14T10:32:04Z</time>
      </trkpt>
      <trkpt lat="44.45522" lon="5.10181">
        <ele>1309.1</ele>
        <time>2021-10-14T10:32:29Z</time>
      </trkpt>
      <trkpt lat="44.45525" lon="5.10184">
        <ele>1307.3</ele>
        <time>2021-10-14T10:32:55Z</time>
      </trkpt>
      <trkpt lat="44.45526" lon="5.10183">
        <ele>1307.7</ele>
        <time>2021-10-14T10:33:25Z</time>
      </trkpt>
      <trkpt lat="44.45526" lon="5.10179">
        <ele>1309.5</ele>
        <time>2021-10-14T10:33:52Z</time>
      </trkpt>
      <trkpt lat="44.4553" lon="5.1017">
        <ele>1313.3</ele>
        <time>2021-10-14T10:34:13Z</time>
      </trkpt>
      <trkpt lat="44.45536" lon="5.10159">
        <ele>1314.5</ele>
        <time>2021-10-14T10:34:27Z</time>
      </trkpt>
      <trkpt lat="44.45552" lon="5.10147">
        <ele>1314</ele>
        <time>2021-10-14T10:34:46Z</time>
      </trkpt>
      <trkpt lat="44.45562" lon="5.10133">
        <ele>1314.6</ele>
        <time>2021-10-14T10:35:07Z</time>
      </trkpt>
      <trkpt lat="44.45567" lon="5.10129">
        <ele>1314.9</ele>
        <time>2021-10-14T10:35:27Z</time>
      </trkpt>
      <trkpt lat="44.45571" lon="5.10127">
        <ele>1315.1</ele>
        <time>2021-10-14T10:35:42Z</time>
      </trkpt>
      <trkpt lat="44.45573" lon="5.10123">
        <ele>1315.5</ele>
        <time>2021-10-14T10:36:10Z</time>
      </trkpt>
      <trkpt lat="44.45572" lon="5.10117">
        <ele>1316</ele>
        <time>2021-10-14T10:36:38Z</time>
      </trkpt>
      <trkpt lat="44.45566" lon="5.10113">
        <ele>1316</ele>
        <time>2021-10-14T10:36:59Z</time>
      </trkpt>
      <trkpt lat="44.45566" lon="5.10115">
        <ele>1315.9</ele>
        <time>2021-10-14T10:37:16Z</time>
      </trkpt>
      <trkpt lat="44.45566" lon="5.10115">
        <ele>1315.9</ele>
        <time>2021-10-14T10:37:57Z</time>
      </trkpt>
      <trkpt lat="44.45569" lon="5.10113">
        <ele>1316.2</ele>
        <time>2021-10-14T10:39:21Z</time>
      </trkpt>
      <trkpt lat="44.45569" lon="5.10114">
        <ele>1316.1</ele>
        <time>2021-10-14T10:41:01Z</time>
      </trkpt>
      <trkpt lat="44.4557" lon="5.10114">
        <ele>1316.1</ele>
        <time>2021-10-14T10:43:15Z</time>
      </trkpt>
      <trkpt lat="44.45571" lon="5.10114">
        <ele>1316.2</ele>
        <time>2021-10-14T10:44:02Z</time>
      </trkpt>
      <trkpt lat="44.45572" lon="5.10113">
        <ele>1316.3</ele>
        <time>2021-10-14T10:45:56Z</time>
      </trkpt>
      <trkpt lat="44.45573" lon="5.10113">
        <ele>1316.3</ele>
        <time>2021-10-14T10:48:55Z</time>
      </trkpt>
      <trkpt lat="44.45572" lon="5.10114">
        <ele>1316.2</ele>
        <time>2021-10-14T10:51:30Z</time>
      </trkpt>
      <trkpt lat="44.45572" lon="5.10114">
        <ele>1316.2</ele>
        <time>2021-10-14T10:53:34Z</time>
      </trkpt>
      <trkpt lat="44.45572" lon="5.10114">
        <ele>1316.2</ele>
        <time>2021-10-14T10:54:43Z</time>
      </trkpt>
      <trkpt lat="44.45573" lon="5.10113">
        <ele>1316.3</ele>
        <time>2021-10-14T10:57:01Z</time>
      </trkpt>
      <trkpt lat="44.4557" lon="5.10114">
        <ele>1316.1</ele>
        <time>2021-10-14T10:58:29Z</time>
      </trkpt>
      <trkpt lat="44.45571" lon="5.10113">
        <ele>1316.3</ele>
        <time>2021-10-14T11:02:48Z</time>
      </trkpt>
      <trkpt lat="44.45571" lon="5.10112">
        <ele>1316.3</ele>
        <time>2021-10-14T11:08:18Z</time>
      </trkpt>
      <trkpt lat="44.4557" lon="5.10111">
        <ele>1316.4</ele>
        <time>2021-10-14T11:15:30Z</time>
      </trkpt>
      <trkpt lat="44.45571" lon="5.10112">
        <ele>1316.3</ele>
        <time>2021-10-14T11:17:28Z</time>
      </trkpt>
      <trkpt lat="44.45572" lon="5.10113">
        <ele>1316.3</ele>
        <time>2021-10-14T11:24:13Z</time>
      </trkpt>
      <trkpt lat="44.45571" lon="5.10112">
        <ele>1316.3</ele>
        <time>2021-10-14T11:26:34Z</time>
      </trkpt>
      <trkpt lat="44.4557" lon="5.10112">
        <ele>1316.3</ele>
        <time>2021-10-14T11:29:42Z</time>
      </trkpt>
      <trkpt lat="44.45574" lon="5.1011">
        <ele>1316.6</ele>
        <time>2021-10-14T11:30:16Z</time>
      </trkpt>
      <trkpt lat="44.45574" lon="5.1011">
        <ele>1316.6</ele>
        <time>2021-10-14T11:30:24Z</time>
      </trkpt>
      <trkpt lat="44.4558" lon="5.1011">
        <ele>1317</ele>
        <time>2021-10-14T11:30:38Z</time>
      </trkpt>
      <trkpt lat="44.45585" lon="5.10112">
        <ele>1316.8</ele>
        <time>2021-10-14T11:30:54Z</time>
      </trkpt>
      <trkpt lat="44.45588" lon="5.10117">
        <ele>1315.9</ele>
        <time>2021-10-14T11:31:10Z</time>
      </trkpt>
      <trkpt lat="44.45593" lon="5.10113">
        <ele>1316</ele>
        <time>2021-10-14T11:31:34Z</time>
      </trkpt>
      <trkpt lat="44.45606" lon="5.10108">
        <ele>1315.7</ele>
        <time>2021-10-14T11:31:50Z</time>
      </trkpt>
      <trkpt lat="44.45619" lon="5.10099">
        <ele>1316.7</ele>
        <time>2021-10-14T11:32:06Z</time>
      </trkpt>
      <trkpt lat="44.45629" lon="5.10094">
        <ele>1317.4</ele>
        <time>2021-10-14T11:32:21Z</time>
      </trkpt>
      <trkpt lat="44.45644" lon="5.10088">
        <ele>1318.7</ele>
        <time>2021-10-14T11:32:40Z</time>
      </trkpt>
      <trkpt lat="44.45649" lon="5.10086">
        <ele>1319.2</ele>
        <time>2021-10-14T11:32:45Z</time>
      </trkpt>
      <trkpt lat="44.45662" lon="5.10078">
        <ele>1318.9</ele>
        <time>2021-10-14T11:33:02Z</time>
      </trkpt>
      <trkpt lat="44.4568" lon="5.10066">
        <ele>1316.5</ele>
        <time>2021-10-14T11:33:24Z</time>
      </trkpt>
      <trkpt lat="44.45689" lon="5.10063">
        <ele>1316</ele>
        <time>2021-10-14T11:33:34Z</time>
      </trkpt>
      <trkpt lat="44.45705" lon="5.10062">
        <ele>1316</ele>
        <time>2021-10-14T11:33:51Z</time>
      </trkpt>
      <trkpt lat="44.4572" lon="5.10065">
        <ele>1316.5</ele>
        <time>2021-10-14T11:34:07Z</time>
      </trkpt>
      <trkpt lat="44.45726" lon="5.10065">
        <ele>1316.6</ele>
        <time>2021-10-14T11:34:14Z</time>
      </trkpt>
      <trkpt lat="44.45735" lon="5.10068">
        <ele>1316.9</ele>
        <time>2021-10-14T11:34:29Z</time>
      </trkpt>
      <trkpt lat="44.4574" lon="5.10068">
        <ele>1316.9</ele>
        <time>2021-10-14T11:34:43Z</time>
      </trkpt>
      <trkpt lat="44.45757" lon="5.10067">
        <ele>1316.6</ele>
        <time>2021-10-14T11:34:59Z</time>
      </trkpt>
      <trkpt lat="44.45777" lon="5.10064">
        <ele>1315.8</ele>
        <time>2021-10-14T11:35:18Z</time>
      </trkpt>
      <trkpt lat="44.45787" lon="5.10062">
        <ele>1315.5</ele>
        <time>2021-10-14T11:35:32Z</time>
      </trkpt>
      <trkpt lat="44.45797" lon="5.10059">
        <ele>1315.3</ele>
        <time>2021-10-14T11:35:42Z</time>
      </trkpt>
      <trkpt lat="44.45803" lon="5.10058">
        <ele>1315.3</ele>
        <time>2021-10-14T11:35:48Z</time>
      </trkpt>
      <trkpt lat="44.4582" lon="5.1005">
        <ele>1315.6</ele>
        <time>2021-10-14T11:36:06Z</time>
      </trkpt>
      <trkpt lat="44.45839" lon="5.10037">
        <ele>1315.7</ele>
        <time>2021-10-14T11:36:28Z</time>
      </trkpt>
      <trkpt lat="44.45852" lon="5.10029">
        <ele>1314.1</ele>
        <time>2021-10-14T11:36:47Z</time>
      </trkpt>
      <trkpt lat="44.45859" lon="5.10026">
        <ele>1313.3</ele>
        <time>2021-10-14T11:36:54Z</time>
      </trkpt>
      <trkpt lat="44.45873" lon="5.10013">
        <ele>1314.2</ele>
        <time>2021-10-14T11:37:12Z</time>
      </trkpt>
      <trkpt lat="44.45885" lon="5.10002">
        <ele>1316</ele>
        <time>2021-10-14T11:37:26Z</time>
      </trkpt>
      <trkpt lat="44.45892" lon="5.09992">
        <ele>1315.9</ele>
        <time>2021-10-14T11:37:35Z</time>
      </trkpt>
      <trkpt lat="44.45907" lon="5.09973">
        <ele>1315</ele>
        <time>2021-10-14T11:37:55Z</time>
      </trkpt>
      <trkpt lat="44.4591" lon="5.0997">
        <ele>1314.9</ele>
        <time>2021-10-14T11:38:12Z</time>
      </trkpt>
      <trkpt lat="44.45921" lon="5.09957">
        <ele>1313.7</ele>
        <time>2021-10-14T11:38:32Z</time>
      </trkpt>
      <trkpt lat="44.45924" lon="5.09951">
        <ele>1313</ele>
        <time>2021-10-14T11:38:52Z</time>
      </trkpt>
      <trkpt lat="44.45925" lon="5.09949">
        <ele>1312.8</ele>
        <time>2021-10-14T11:38:58Z</time>
      </trkpt>
      <trkpt lat="44.45935" lon="5.09938">
        <ele>1311.1</ele>
        <time>2021-10-14T11:39:13Z</time>
      </trkpt>
      <trkpt lat="44.45942" lon="5.09928">
        <ele>1310.6</ele>
        <time>2021-10-14T11:39:22Z</time>
      </trkpt>
      <trkpt lat="44.45956" lon="5.09906">
        <ele>1309.9</ele>
        <time>2021-10-14T11:39:40Z</time>
      </trkpt>
      <trkpt lat="44.45967" lon="5.09886">
        <ele>1309.4</ele>
        <time>2021-10-14T11:39:57Z</time>
      </trkpt>
      <trkpt lat="44.4597" lon="5.09881">
        <ele>1309.5</ele>
        <time>2021-10-14T11:40:01Z</time>
      </trkpt>
      <trkpt lat="44.45983" lon="5.09863">
        <ele>1310.9</ele>
        <time>2021-10-14T11:40:17Z</time>
      </trkpt>
      <trkpt lat="44.45985" lon="5.09861">
        <ele>1311.1</ele>
        <time>2021-10-14T11:40:20Z</time>
      </trkpt>
      <trkpt lat="44.45996" lon="5.0984">
        <ele>1314.5</ele>
        <time>2021-10-14T11:40:37Z</time>
      </trkpt>
      <trkpt lat="44.46014" lon="5.09818">
        <ele>1311.9</ele>
        <time>2021-10-14T11:40:57Z</time>
      </trkpt>
      <trkpt lat="44.46028" lon="5.09798">
        <ele>1309.5</ele>
        <time>2021-10-14T11:41:16Z</time>
      </trkpt>
      <trkpt lat="44.4603" lon="5.09791">
        <ele>1309.6</ele>
        <time>2021-10-14T11:41:28Z</time>
      </trkpt>
      <trkpt lat="44.46032" lon="5.09789">
        <ele>1309.4</ele>
        <time>2021-10-14T11:41:34Z</time>
      </trkpt>
      <trkpt lat="44.46036" lon="5.09781">
        <ele>1309.5</ele>
        <time>2021-10-14T11:41:40Z</time>
      </trkpt>
      <trkpt lat="44.46039" lon="5.09776">
        <ele>1309.7</ele>
        <time>2021-10-14T11:41:45Z</time>
      </trkpt>
      <trkpt lat="44.46045" lon="5.09765">
        <ele>1310.5</ele>
        <time>2021-10-14T11:41:54Z</time>
      </trkpt>
      <trkpt lat="44.46057" lon="5.09751">
        <ele>1312.2</ele>
        <time>2021-10-14T11:42:12Z</time>
      </trkpt>
      <trkpt lat="44.46068" lon="5.09742">
        <ele>1312</ele>
        <time>2021-10-14T11:42:31Z</time>
      </trkpt>
      <trkpt lat="44.46074" lon="5.09748">
        <ele>1312.6</ele>
        <time>2021-10-14T11:42:39Z</time>
      </trkpt>
      <trkpt lat="44.46075" lon="5.0975">
        <ele>1312.8</ele>
        <time>2021-10-14T11:42:41Z</time>
      </trkpt>
      <trkpt lat="44.4608" lon="5.09758">
        <ele>1311</ele>
        <time>2021-10-14T11:42:57Z</time>
      </trkpt>
      <trkpt lat="44.46074" lon="5.09761">
        <ele>1310.4</ele>
        <time>2021-10-14T11:43:09Z</time>
      </trkpt>
      <trkpt lat="44.46072" lon="5.09779">
        <ele>1306.7</ele>
        <time>2021-10-14T11:43:28Z</time>
      </trkpt>
      <trkpt lat="44.46071" lon="5.09781">
        <ele>1306.3</ele>
        <time>2021-10-14T11:44:10Z</time>
      </trkpt>
      <trkpt lat="44.46071" lon="5.09779">
        <ele>1306.7</ele>
        <time>2021-10-14T11:44:54Z</time>
      </trkpt>
      <trkpt lat="44.46071" lon="5.09777">
        <ele>1307.1</ele>
        <time>2021-10-14T11:45:34Z</time>
      </trkpt>
      <trkpt lat="44.46071" lon="5.09777">
        <ele>1307.1</ele>
        <time>2021-10-14T11:46:32Z</time>
      </trkpt>
      <trkpt lat="44.46072" lon="5.09776">
        <ele>1307.3</ele>
        <time>2021-10-14T11:46:59Z</time>
      </trkpt>
      <trkpt lat="44.46072" lon="5.09776">
        <ele>1307.3</ele>
        <time>2021-10-14T11:47:52Z</time>
      </trkpt>
      <trkpt lat="44.46072" lon="5.09774">
        <ele>1307.7</ele>
        <time>2021-10-14T11:48:35Z</time>
      </trkpt>
      <trkpt lat="44.46068" lon="5.09771">
        <ele>1308.5</ele>
        <time>2021-10-14T11:48:58Z</time>
      </trkpt>
      <trkpt lat="44.46065" lon="5.09767">
        <ele>1309.4</ele>
        <time>2021-10-14T11:49:20Z</time>
      </trkpt>
      <trkpt lat="44.46065" lon="5.09767">
        <ele>1309.4</ele>
        <time>2021-10-14T11:50:03Z</time>
      </trkpt>
      <trkpt lat="44.46063" lon="5.09768">
        <ele>1309.3</ele>
        <time>2021-10-14T11:50:31Z</time>
      </trkpt>
      <trkpt lat="44.46061" lon="5.09777">
        <ele>1307.9</ele>
        <time>2021-10-14T11:50:47Z</time>
      </trkpt>
      <trkpt lat="44.46057" lon="5.0978">
        <ele>1307.8</ele>
        <time>2021-10-14T11:51:07Z</time>
      </trkpt>
      <trkpt lat="44.4604" lon="5.09797">
        <ele>1307.7</ele>
        <time>2021-10-14T11:51:29Z</time>
      </trkpt>
      <trkpt lat="44.46021" lon="5.09823">
        <ele>1310.1</ele>
        <time>2021-10-14T11:51:54Z</time>
      </trkpt>
      <trkpt lat="44.46002" lon="5.0985">
        <ele>1312.7</ele>
        <time>2021-10-14T11:52:19Z</time>
      </trkpt>
      <trkpt lat="44.45988" lon="5.0988">
        <ele>1309.1</ele>
        <time>2021-10-14T11:52:42Z</time>
      </trkpt>
      <trkpt lat="44.45971" lon="5.09909">
        <ele>1308</ele>
        <time>2021-10-14T11:53:06Z</time>
      </trkpt>
      <trkpt lat="44.4596" lon="5.09937">
        <ele>1305.2</ele>
        <time>2021-10-14T11:53:28Z</time>
      </trkpt>
      <trkpt lat="44.45948" lon="5.09963">
        <ele>1304.1</ele>
        <time>2021-10-14T11:53:49Z</time>
      </trkpt>
      <trkpt lat="44.45933" lon="5.09981">
        <ele>1307.7</ele>
        <time>2021-10-14T11:54:09Z</time>
      </trkpt>
      <trkpt lat="44.45913" lon="5.09992">
        <ele>1314.4</ele>
        <time>2021-10-14T11:54:32Z</time>
      </trkpt>
      <trkpt lat="44.459" lon="5.10005">
        <ele>1313.5</ele>
        <time>2021-10-14T11:54:49Z</time>
      </trkpt>
      <trkpt lat="44.45884" lon="5.10027">
        <ele>1308.3</ele>
        <time>2021-10-14T11:55:11Z</time>
      </trkpt>
      <trkpt lat="44.45866" lon="5.10042">
        <ele>1308.2</ele>
        <time>2021-10-14T11:55:33Z</time>
      </trkpt>
      <trkpt lat="44.45856" lon="5.1005">
        <ele>1309.1</ele>
        <time>2021-10-14T11:55:55Z</time>
      </trkpt>
      <trkpt lat="44.45851" lon="5.10053">
        <ele>1310</ele>
        <time>2021-10-14T11:56:23Z</time>
      </trkpt>
      <trkpt lat="44.45831" lon="5.10072">
        <ele>1313.3</ele>
        <time>2021-10-14T11:56:46Z</time>
      </trkpt>
      <trkpt lat="44.45813" lon="5.10092">
        <ele>1308.2</ele>
        <time>2021-10-14T11:57:10Z</time>
      </trkpt>
      <trkpt lat="44.45811" lon="5.10095">
        <ele>1306.6</ele>
        <time>2021-10-14T11:57:31Z</time>
      </trkpt>
      <trkpt lat="44.45807" lon="5.10092">
        <ele>1308.8</ele>
        <time>2021-10-14T11:58:03Z</time>
      </trkpt>
      <trkpt lat="44.45804" lon="5.1009">
        <ele>1310.2</ele>
        <time>2021-10-14T11:58:06Z</time>
      </trkpt>
      <trkpt lat="44.45792" lon="5.1008">
        <ele>1315</ele>
        <time>2021-10-14T11:58:25Z</time>
      </trkpt>
      <trkpt lat="44.45781" lon="5.10075">
        <ele>1315.7</ele>
        <time>2021-10-14T11:58:43Z</time>
      </trkpt>
      <trkpt lat="44.45777" lon="5.10075">
        <ele>1315.9</ele>
        <time>2021-10-14T11:58:58Z</time>
      </trkpt>
      <trkpt lat="44.45764" lon="5.10072">
        <ele>1316.5</ele>
        <time>2021-10-14T11:59:15Z</time>
      </trkpt>
      <trkpt lat="44.45752" lon="5.10073">
        <ele>1317.2</ele>
        <time>2021-10-14T11:59:32Z</time>
      </trkpt>
      <trkpt lat="44.45747" lon="5.10071">
        <ele>1317.1</ele>
        <time>2021-10-14T12:00:12Z</time>
      </trkpt>
      <trkpt lat="44.45739" lon="5.10071">
        <ele>1317.2</ele>
        <time>2021-10-14T12:00:29Z</time>
      </trkpt>
      <trkpt lat="44.45731" lon="5.10068">
        <ele>1316.9</ele>
        <time>2021-10-14T12:00:41Z</time>
      </trkpt>
      <trkpt lat="44.45729" lon="5.10068">
        <ele>1316.9</ele>
        <time>2021-10-14T12:00:43Z</time>
      </trkpt>
      <trkpt lat="44.45709" lon="5.10063">
        <ele>1316.2</ele>
        <time>2021-10-14T12:01:03Z</time>
      </trkpt>
      <trkpt lat="44.45694" lon="5.10064">
        <ele>1316.2</ele>
        <time>2021-10-14T12:01:19Z</time>
      </trkpt>
      <trkpt lat="44.45671" lon="5.10073">
        <ele>1317.9</ele>
        <time>2021-10-14T12:01:41Z</time>
      </trkpt>
      <trkpt lat="44.45646" lon="5.10085">
        <ele>1319.5</ele>
        <time>2021-10-14T12:02:05Z</time>
      </trkpt>
      <trkpt lat="44.45621" lon="5.10096">
        <ele>1317.3</ele>
        <time>2021-10-14T12:02:27Z</time>
      </trkpt>
      <trkpt lat="44.45599" lon="5.10107">
        <ele>1316.4</ele>
        <time>2021-10-14T12:02:49Z</time>
      </trkpt>
      <trkpt lat="44.45581" lon="5.10118">
        <ele>1316.2</ele>
        <time>2021-10-14T12:03:08Z</time>
      </trkpt>
      <trkpt lat="44.45571" lon="5.10126">
        <ele>1315.2</ele>
        <time>2021-10-14T12:03:26Z</time>
      </trkpt>
      <trkpt lat="44.45561" lon="5.10138">
        <ele>1314.3</ele>
        <time>2021-10-14T12:03:45Z</time>
      </trkpt>
      <trkpt lat="44.45546" lon="5.10149">
        <ele>1314.2</ele>
        <time>2021-10-14T12:04:07Z</time>
      </trkpt>
      <trkpt lat="44.4554" lon="5.10148">
        <ele>1314.4</ele>
        <time>2021-10-14T12:04:23Z</time>
      </trkpt>
      <trkpt lat="44.4553" lon="5.1015">
        <ele>1314.7</ele>
        <time>2021-10-14T12:04:38Z</time>
      </trkpt>
      <trkpt lat="44.45519" lon="5.10154">
        <ele>1315.2</ele>
        <time>2021-10-14T12:04:54Z</time>
      </trkpt>
      <trkpt lat="44.4551" lon="5.10157">
        <ele>1315.8</ele>
        <time>2021-10-14T12:05:13Z</time>
      </trkpt>
      <trkpt lat="44.45499" lon="5.10165">
        <ele>1316.8</ele>
        <time>2021-10-14T12:05:39Z</time>
      </trkpt>
      <trkpt lat="44.45484" lon="5.10169">
        <ele>1314.9</ele>
        <time>2021-10-14T12:05:58Z</time>
      </trkpt>
      <trkpt lat="44.45475" lon="5.10167">
        <ele>1314.8</ele>
        <time>2021-10-14T12:06:09Z</time>
      </trkpt>
      <trkpt lat="44.45467" lon="5.10165">
        <ele>1314.1</ele>
        <time>2021-10-14T12:06:33Z</time>
      </trkpt>
      <trkpt lat="44.45461" lon="5.10167">
        <ele>1313.6</ele>
        <time>2021-10-14T12:06:59Z</time>
      </trkpt>
      <trkpt lat="44.45462" lon="5.10167">
        <ele>1313.7</ele>
        <time>2021-10-14T12:07:14Z</time>
      </trkpt>
      <trkpt lat="44.45456" lon="5.10168">
        <ele>1312.9</ele>
        <time>2021-10-14T12:07:33Z</time>
      </trkpt>
      <trkpt lat="44.45452" lon="5.10168">
        <ele>1312.6</ele>
        <time>2021-10-14T12:07:58Z</time>
      </trkpt>
      <trkpt lat="44.4545" lon="5.10168">
        <ele>1312.4</ele>
        <time>2021-10-14T12:08:00Z</time>
      </trkpt>
      <trkpt lat="44.45425" lon="5.10174">
        <ele>1308.6</ele>
        <time>2021-10-14T12:08:24Z</time>
      </trkpt>
      <trkpt lat="44.45421" lon="5.10175">
        <ele>1308</ele>
        <time>2021-10-14T12:08:45Z</time>
      </trkpt>
      <trkpt lat="44.45414" lon="5.10178">
        <ele>1306.6</ele>
        <time>2021-10-14T12:09:25Z</time>
      </trkpt>
      <trkpt lat="44.45393" lon="5.10178">
        <ele>1304.5</ele>
        <time>2021-10-14T12:09:49Z</time>
      </trkpt>
      <trkpt lat="44.45387" lon="5.10178">
        <ele>1303.9</ele>
        <time>2021-10-14T12:10:04Z</time>
      </trkpt>
      <trkpt lat="44.45377" lon="5.10178">
        <ele>1302.9</ele>
        <time>2021-10-14T12:10:21Z</time>
      </trkpt>
      <trkpt lat="44.45376" lon="5.10178">
        <ele>1302.8</ele>
        <time>2021-10-14T12:11:05Z</time>
      </trkpt>
      <trkpt lat="44.45375" lon="5.10178">
        <ele>1302.7</ele>
        <time>2021-10-14T12:11:06Z</time>
      </trkpt>
      <trkpt lat="44.4536" lon="5.10178">
        <ele>1301.2</ele>
        <time>2021-10-14T12:11:24Z</time>
      </trkpt>
      <trkpt lat="44.45348" lon="5.10177">
        <ele>1300.4</ele>
        <time>2021-10-14T12:11:41Z</time>
      </trkpt>
      <trkpt lat="44.4533" lon="5.10176">
        <ele>1298.9</ele>
        <time>2021-10-14T12:12:00Z</time>
      </trkpt>
      <trkpt lat="44.45317" lon="5.10173">
        <ele>1298.3</ele>
        <time>2021-10-14T12:12:15Z</time>
      </trkpt>
      <trkpt lat="44.45303" lon="5.10168">
        <ele>1298.2</ele>
        <time>2021-10-14T12:12:32Z</time>
      </trkpt>
      <trkpt lat="44.45293" lon="5.10162">
        <ele>1296.5</ele>
        <time>2021-10-14T12:12:47Z</time>
      </trkpt>
      <trkpt lat="44.45286" lon="5.10155">
        <ele>1294.6</ele>
        <time>2021-10-14T12:13:00Z</time>
      </trkpt>
      <trkpt lat="44.4528" lon="5.1015">
        <ele>1293</ele>
        <time>2021-10-14T12:13:12Z</time>
      </trkpt>
      <trkpt lat="44.4527" lon="5.10142">
        <ele>1290.6</ele>
        <time>2021-10-14T12:13:29Z</time>
      </trkpt>
      <trkpt lat="44.45265" lon="5.10135">
        <ele>1288.9</ele>
        <time>2021-10-14T12:13:41Z</time>
      </trkpt>
      <trkpt lat="44.45259" lon="5.10125">
        <ele>1286.7</ele>
        <time>2021-10-14T12:13:54Z</time>
      </trkpt>
      <trkpt lat="44.45252" lon="5.10116">
        <ele>1284.6</ele>
        <time>2021-10-14T12:14:08Z</time>
      </trkpt>
      <trkpt lat="44.45244" lon="5.10106">
        <ele>1281.5</ele>
        <time>2021-10-14T12:14:23Z</time>
      </trkpt>
      <trkpt lat="44.45236" lon="5.10097">
        <ele>1278.2</ele>
        <time>2021-10-14T12:14:39Z</time>
      </trkpt>
      <trkpt lat="44.45224" lon="5.10082">
        <ele>1273.2</ele>
        <time>2021-10-14T12:14:59Z</time>
      </trkpt>
      <trkpt lat="44.45216" lon="5.10069">
        <ele>1268.9</ele>
        <time>2021-10-14T12:15:14Z</time>
      </trkpt>
      <trkpt lat="44.45212" lon="5.10062">
        <ele>1266.8</ele>
        <time>2021-10-14T12:15:42Z</time>
      </trkpt>
      <trkpt lat="44.45199" lon="5.10049">
        <ele>1262.2</ele>
        <time>2021-10-14T12:16:03Z</time>
      </trkpt>
      <trkpt lat="44.45191" lon="5.10042">
        <ele>1259.8</ele>
        <time>2021-10-14T12:16:17Z</time>
      </trkpt>
      <trkpt lat="44.4518" lon="5.10036">
        <ele>1257.2</ele>
        <time>2021-10-14T12:16:32Z</time>
      </trkpt>
      <trkpt lat="44.45171" lon="5.10032">
        <ele>1255.4</ele>
        <time>2021-10-14T12:16:47Z</time>
      </trkpt>
      <trkpt lat="44.45164" lon="5.10029">
        <ele>1253.6</ele>
        <time>2021-10-14T12:16:59Z</time>
      </trkpt>
      <trkpt lat="44.45154" lon="5.10027">
        <ele>1250.4</ele>
        <time>2021-10-14T12:17:15Z</time>
      </trkpt>
      <trkpt lat="44.45145" lon="5.1002">
        <ele>1247.2</ele>
        <time>2021-10-14T12:17:30Z</time>
      </trkpt>
      <trkpt lat="44.45143" lon="5.10017">
        <ele>1246.4</ele>
        <time>2021-10-14T12:18:20Z</time>
      </trkpt>
      <trkpt lat="44.4514" lon="5.10011">
        <ele>1245.1</ele>
        <time>2021-10-14T12:18:40Z</time>
      </trkpt>
      <trkpt lat="44.45134" lon="5.09998">
        <ele>1242.2</ele>
        <time>2021-10-14T12:19:01Z</time>
      </trkpt>
      <trkpt lat="44.45128" lon="5.09987">
        <ele>1238.3</ele>
        <time>2021-10-14T12:19:18Z</time>
      </trkpt>
      <trkpt lat="44.45121" lon="5.09975">
        <ele>1234.2</ele>
        <time>2021-10-14T12:19:33Z</time>
      </trkpt>
      <trkpt lat="44.45115" lon="5.09965">
        <ele>1231</ele>
        <time>2021-10-14T12:19:48Z</time>
      </trkpt>
      <trkpt lat="44.45106" lon="5.09959">
        <ele>1228</ele>
        <time>2021-10-14T12:20:05Z</time>
      </trkpt>
      <trkpt lat="44.45099" lon="5.09953">
        <ele>1225.6</ele>
        <time>2021-10-14T12:20:18Z</time>
      </trkpt>
      <trkpt lat="44.45092" lon="5.09938">
        <ele>1222.1</ele>
        <time>2021-10-14T12:20:38Z</time>
      </trkpt>
      <trkpt lat="44.45089" lon="5.09935">
        <ele>1221.2</ele>
        <time>2021-10-14T12:20:42Z</time>
      </trkpt>
      <trkpt lat="44.45081" lon="5.09925">
        <ele>1218.4</ele>
        <time>2021-10-14T12:20:55Z</time>
      </trkpt>
      <trkpt lat="44.45073" lon="5.09918">
        <ele>1215.6</ele>
        <time>2021-10-14T12:21:11Z</time>
      </trkpt>
      <trkpt lat="44.45072" lon="5.09917">
        <ele>1215.3</ele>
        <time>2021-10-14T12:21:13Z</time>
      </trkpt>
      <trkpt lat="44.45069" lon="5.09912">
        <ele>1213.7</ele>
        <time>2021-10-14T12:21:18Z</time>
      </trkpt>
      <trkpt lat="44.45057" lon="5.09896">
        <ele>1208.8</ele>
        <time>2021-10-14T12:21:37Z</time>
      </trkpt>
      <trkpt lat="44.45054" lon="5.09892">
        <ele>1207.7</ele>
        <time>2021-10-14T12:22:01Z</time>
      </trkpt>
      <trkpt lat="44.45056" lon="5.09891">
        <ele>1207.9</ele>
        <time>2021-10-14T12:23:21Z</time>
      </trkpt>
      <trkpt lat="44.45056" lon="5.09892">
        <ele>1208.1</ele>
        <time>2021-10-14T12:24:13Z</time>
      </trkpt>
      <trkpt lat="44.45052" lon="5.09891">
        <ele>1207.3</ele>
        <time>2021-10-14T12:24:48Z</time>
      </trkpt>
      <trkpt lat="44.45038" lon="5.09882">
        <ele>1204.2</ele>
        <time>2021-10-14T12:25:07Z</time>
      </trkpt>
      <trkpt lat="44.45027" lon="5.0987">
        <ele>1202</ele>
        <time>2021-10-14T12:25:28Z</time>
      </trkpt>
      <trkpt lat="44.45018" lon="5.09857">
        <ele>1200.7</ele>
        <time>2021-10-14T12:25:46Z</time>
      </trkpt>
      <trkpt lat="44.45008" lon="5.0985">
        <ele>1200</ele>
        <time>2021-10-14T12:26:03Z</time>
      </trkpt>
      <trkpt lat="44.45" lon="5.09845">
        <ele>1199.7</ele>
        <time>2021-10-14T12:26:16Z</time>
      </trkpt>
      <trkpt lat="44.44993" lon="5.09841">
        <ele>1197.5</ele>
        <time>2021-10-14T12:26:28Z</time>
      </trkpt>
      <trkpt lat="44.44986" lon="5.09838">
        <ele>1195.3</ele>
        <time>2021-10-14T12:26:40Z</time>
      </trkpt>
      <trkpt lat="44.44977" lon="5.09835">
        <ele>1192.5</ele>
        <time>2021-10-14T12:26:54Z</time>
      </trkpt>
      <trkpt lat="44.44968" lon="5.09832">
        <ele>1189.4</ele>
        <time>2021-10-14T12:27:08Z</time>
      </trkpt>
      <trkpt lat="44.44959" lon="5.09828">
        <ele>1185.9</ele>
        <time>2021-10-14T12:27:22Z</time>
      </trkpt>
      <trkpt lat="44.44951" lon="5.09825">
        <ele>1183</ele>
        <time>2021-10-14T12:27:35Z</time>
      </trkpt>
      <trkpt lat="44.44941" lon="5.09819">
        <ele>1179.1</ele>
        <time>2021-10-14T12:27:50Z</time>
      </trkpt>
      <trkpt lat="44.44932" lon="5.09816">
        <ele>1176</ele>
        <time>2021-10-14T12:28:03Z</time>
      </trkpt>
      <trkpt lat="44.44923" lon="5.09812">
        <ele>1172.8</ele>
        <time>2021-10-14T12:28:14Z</time>
      </trkpt>
      <trkpt lat="44.44916" lon="5.09807">
        <ele>1170.3</ele>
        <time>2021-10-14T12:28:24Z</time>
      </trkpt>
      <trkpt lat="44.44905" lon="5.09801">
        <ele>1167.5</ele>
        <time>2021-10-14T12:28:39Z</time>
      </trkpt>
      <trkpt lat="44.44894" lon="5.09794">
        <ele>1164.9</ele>
        <time>2021-10-14T12:28:52Z</time>
      </trkpt>
      <trkpt lat="44.44883" lon="5.09786">
        <ele>1162.6</ele>
        <time>2021-10-14T12:29:06Z</time>
      </trkpt>
      <trkpt lat="44.44874" lon="5.09775">
        <ele>1160.8</ele>
        <time>2021-10-14T12:29:24Z</time>
      </trkpt>
      <trkpt lat="44.44871" lon="5.09775">
        <ele>1160.3</ele>
        <time>2021-10-14T12:29:43Z</time>
      </trkpt>
      <trkpt lat="44.44868" lon="5.09767">
        <ele>1159.8</ele>
        <time>2021-10-14T12:29:52Z</time>
      </trkpt>
      <trkpt lat="44.4486" lon="5.09754">
        <ele>1158.8</ele>
        <time>2021-10-14T12:30:12Z</time>
      </trkpt>
      <trkpt lat="44.44858" lon="5.09755">
        <ele>1158.6</ele>
        <time>2021-10-14T12:30:42Z</time>
      </trkpt>
      <trkpt lat="44.44856" lon="5.09753">
        <ele>1158.4</ele>
        <time>2021-10-14T12:31:43Z</time>
      </trkpt>
      <trkpt lat="44.44849" lon="5.09744">
        <ele>1156.5</ele>
        <time>2021-10-14T12:31:55Z</time>
      </trkpt>
      <trkpt lat="44.44838" lon="5.09723">
        <ele>1151.2</ele>
        <time>2021-10-14T12:32:16Z</time>
      </trkpt>
      <trkpt lat="44.44827" lon="5.09695">
        <ele>1145.3</ele>
        <time>2021-10-14T12:32:37Z</time>
      </trkpt>
      <trkpt lat="44.44812" lon="5.09672">
        <ele>1141.5</ele>
        <time>2021-10-14T12:32:58Z</time>
      </trkpt>
      <trkpt lat="44.44811" lon="5.09671">
        <ele>1141.4</ele>
        <time>2021-10-14T12:32:59Z</time>
      </trkpt>
      <trkpt lat="44.44806" lon="5.09667">
        <ele>1141</ele>
        <time>2021-10-14T12:33:04Z</time>
      </trkpt>
      <trkpt lat="44.44784" lon="5.09643">
        <ele>1137.7</ele>
        <time>2021-10-14T12:33:28Z</time>
      </trkpt>
      <trkpt lat="44.44766" lon="5.0963">
        <ele>1137.1</ele>
        <time>2021-10-14T12:33:46Z</time>
      </trkpt>
      <trkpt lat="44.44741" lon="5.09628">
        <ele>1136.7</ele>
        <time>2021-10-14T12:34:08Z</time>
      </trkpt>
      <trkpt lat="44.44717" lon="5.09642">
        <ele>1134.1</ele>
        <time>2021-10-14T12:34:31Z</time>
      </trkpt>
      <trkpt lat="44.44697" lon="5.09659">
        <ele>1132.5</ele>
        <time>2021-10-14T12:34:53Z</time>
      </trkpt>
      <trkpt lat="44.44685" lon="5.09676">
        <ele>1130</ele>
        <time>2021-10-14T12:35:10Z</time>
      </trkpt>
      <trkpt lat="44.44685" lon="5.09691">
        <ele>1127.9</ele>
        <time>2021-10-14T12:35:20Z</time>
      </trkpt>
      <trkpt lat="44.44698" lon="5.09719">
        <ele>1127.8</ele>
        <time>2021-10-14T12:35:42Z</time>
      </trkpt>
      <trkpt lat="44.44715" lon="5.09745">
        <ele>1130.8</ele>
        <time>2021-10-14T12:36:05Z</time>
      </trkpt>
      <trkpt lat="44.44727" lon="5.09767">
        <ele>1130.2</ele>
        <time>2021-10-14T12:36:24Z</time>
      </trkpt>
      <trkpt lat="44.44742" lon="5.09792">
        <ele>1129</ele>
        <time>2021-10-14T12:36:46Z</time>
      </trkpt>
      <trkpt lat="44.44757" lon="5.09816">
        <ele>1127.8</ele>
        <time>2021-10-14T12:37:07Z</time>
      </trkpt>
      <trkpt lat="44.4477" lon="5.09837">
        <ele>1127.1</ele>
        <time>2021-10-14T12:37:26Z</time>
      </trkpt>
      <trkpt lat="44.44789" lon="5.09864">
        <ele>1126</ele>
        <time>2021-10-14T12:37:51Z</time>
      </trkpt>
      <trkpt lat="44.44803" lon="5.09888">
        <ele>1124.5</ele>
        <time>2021-10-14T12:38:12Z</time>
      </trkpt>
      <trkpt lat="44.44819" lon="5.09914">
        <ele>1123.7</ele>
        <time>2021-10-14T12:38:33Z</time>
      </trkpt>
      <trkpt lat="44.44826" lon="5.09924">
        <ele>1125.4</ele>
        <time>2021-10-14T12:38:41Z</time>
      </trkpt>
      <trkpt lat="44.44829" lon="5.09929">
        <ele>1126.3</ele>
        <time>2021-10-14T12:38:46Z</time>
      </trkpt>
      <trkpt lat="44.44841" lon="5.09958">
        <ele>1129.3</ele>
        <time>2021-10-14T12:39:08Z</time>
      </trkpt>
      <trkpt lat="44.44844" lon="5.09977">
        <ele>1129.2</ele>
        <time>2021-10-14T12:39:23Z</time>
      </trkpt>
      <trkpt lat="44.44838" lon="5.09972">
        <ele>1127</ele>
        <time>2021-10-14T12:39:40Z</time>
      </trkpt>
      <trkpt lat="44.44831" lon="5.09952">
        <ele>1125.5</ele>
        <time>2021-10-14T12:39:59Z</time>
      </trkpt>
      <trkpt lat="44.44826" lon="5.09941">
        <ele>1124.2</ele>
        <time>2021-10-14T12:40:16Z</time>
      </trkpt>
      <trkpt lat="44.44824" lon="5.09938">
        <ele>1123.6</ele>
        <time>2021-10-14T12:41:05Z</time>
      </trkpt>
      <trkpt lat="44.44823" lon="5.0994">
        <ele>1123.1</ele>
        <time>2021-10-14T12:41:45Z</time>
      </trkpt>
      <trkpt lat="44.44821" lon="5.09941">
        <ele>1122.2</ele>
        <time>2021-10-14T12:42:22Z</time>
      </trkpt>
      <trkpt lat="44.44817" lon="5.09937">
        <ele>1120.8</ele>
        <time>2021-10-14T12:43:12Z</time>
      </trkpt>
      <trkpt lat="44.44815" lon="5.09932">
        <ele>1120.3</ele>
        <time>2021-10-14T12:43:15Z</time>
      </trkpt>
      <trkpt lat="44.44802" lon="5.09914">
        <ele>1116.6</ele>
        <time>2021-10-14T12:43:34Z</time>
      </trkpt>
      <trkpt lat="44.44795" lon="5.09907">
        <ele>1115.7</ele>
        <time>2021-10-14T12:43:42Z</time>
      </trkpt>
      <trkpt lat="44.44793" lon="5.09906">
        <ele>1115.2</ele>
        <time>2021-10-14T12:43:49Z</time>
      </trkpt>
      <trkpt lat="44.44789" lon="5.09901">
        <ele>1115</ele>
        <time>2021-10-14T12:44:07Z</time>
      </trkpt>
      <trkpt lat="44.44773" lon="5.09891">
        <ele>1111.6</ele>
        <time>2021-10-14T12:44:25Z</time>
      </trkpt>
      <trkpt lat="44.44755" lon="5.09877">
        <ele>1108.8</ele>
        <time>2021-10-14T12:44:45Z</time>
      </trkpt>
      <trkpt lat="44.44737" lon="5.09865">
        <ele>1105.9</ele>
        <time>2021-10-14T12:45:04Z</time>
      </trkpt>
      <trkpt lat="44.44713" lon="5.09845">
        <ele>1103.8</ele>
        <time>2021-10-14T12:45:27Z</time>
      </trkpt>
      <trkpt lat="44.44693" lon="5.09832">
        <ele>1100.8</ele>
        <time>2021-10-14T12:45:45Z</time>
      </trkpt>
      <trkpt lat="44.44675" lon="5.09821">
        <ele>1097.3</ele>
        <time>2021-10-14T12:46:02Z</time>
      </trkpt>
      <trkpt lat="44.4466" lon="5.09809">
        <ele>1094.8</ele>
        <time>2021-10-14T12:46:18Z</time>
      </trkpt>
      <trkpt lat="44.44643" lon="5.09793">
        <ele>1092.4</ele>
        <time>2021-10-14T12:46:38Z</time>
      </trkpt>
      <trkpt lat="44.44628" lon="5.0978">
        <ele>1089.9</ele>
        <time>2021-10-14T12:46:55Z</time>
      </trkpt>
      <trkpt lat="44.44608" lon="5.09765">
        <ele>1085.9</ele>
        <time>2021-10-14T12:47:15Z</time>
      </trkpt>
      <trkpt lat="44.4459" lon="5.09748">
        <ele>1083</ele>
        <time>2021-10-14T12:47:34Z</time>
      </trkpt>
      <trkpt lat="44.44576" lon="5.09729">
        <ele>1080.5</ele>
        <time>2021-10-14T12:47:51Z</time>
      </trkpt>
      <trkpt lat="44.44563" lon="5.09706">
        <ele>1078.8</ele>
        <time>2021-10-14T12:48:10Z</time>
      </trkpt>
      <trkpt lat="44.44548" lon="5.09679">
        <ele>1076.7</ele>
        <time>2021-10-14T12:48:33Z</time>
      </trkpt>
      <trkpt lat="44.44539" lon="5.09656">
        <ele>1075</ele>
        <time>2021-10-14T12:48:49Z</time>
      </trkpt>
      <trkpt lat="44.4453" lon="5.09629">
        <ele>1071.9</ele>
        <time>2021-10-14T12:49:10Z</time>
      </trkpt>
      <trkpt lat="44.44518" lon="5.09607">
        <ele>1068.1</ele>
        <time>2021-10-14T12:49:29Z</time>
      </trkpt>
      <trkpt lat="44.44515" lon="5.09582">
        <ele>1068.1</ele>
        <time>2021-10-14T12:49:46Z</time>
      </trkpt>
      <trkpt lat="44.44515" lon="5.09571">
        <ele>1066.8</ele>
        <time>2021-10-14T12:49:51Z</time>
      </trkpt>
      <trkpt lat="44.44521" lon="5.09544">
        <ele>1065.7</ele>
        <time>2021-10-14T12:50:08Z</time>
      </trkpt>
      <trkpt lat="44.44525" lon="5.09527">
        <ele>1064.9</ele>
        <time>2021-10-14T12:50:21Z</time>
      </trkpt>
      <trkpt lat="44.44537" lon="5.0949">
        <ele>1062.9</ele>
        <time>2021-10-14T12:50:46Z</time>
      </trkpt>
      <trkpt lat="44.44539" lon="5.09486">
        <ele>1062.8</ele>
        <time>2021-10-14T12:50:49Z</time>
      </trkpt>
      <trkpt lat="44.44551" lon="5.09453">
        <ele>1060.3</ele>
        <time>2021-10-14T12:51:11Z</time>
      </trkpt>
      <trkpt lat="44.44551" lon="5.0945">
        <ele>1059.7</ele>
        <time>2021-10-14T12:51:13Z</time>
      </trkpt>
      <trkpt lat="44.44554" lon="5.09442">
        <ele>1059.2</ele>
        <time>2021-10-14T12:51:18Z</time>
      </trkpt>
      <trkpt lat="44.4457" lon="5.0941">
        <ele>1058.4</ele>
        <time>2021-10-14T12:51:41Z</time>
      </trkpt>
      <trkpt lat="44.44582" lon="5.09383">
        <ele>1056.3</ele>
        <time>2021-10-14T12:52:00Z</time>
      </trkpt>
      <trkpt lat="44.44591" lon="5.09353">
        <ele>1052.1</ele>
        <time>2021-10-14T12:52:20Z</time>
      </trkpt>
      <trkpt lat="44.44604" lon="5.09326">
        <ele>1049</ele>
        <time>2021-10-14T12:52:41Z</time>
      </trkpt>
      <trkpt lat="44.44614" lon="5.09308">
        <ele>1046.9</ele>
        <time>2021-10-14T12:52:56Z</time>
      </trkpt>
      <trkpt lat="44.44628" lon="5.09287">
        <ele>1045.1</ele>
        <time>2021-10-14T12:53:15Z</time>
      </trkpt>
      <trkpt lat="44.4463" lon="5.09284">
        <ele>1044.8</ele>
        <time>2021-10-14T12:53:18Z</time>
      </trkpt>
      <trkpt lat="44.44642" lon="5.09267">
        <ele>1043.5</ele>
        <time>2021-10-14T12:53:34Z</time>
      </trkpt>
      <trkpt lat="44.44658" lon="5.09255">
        <ele>1044.2</ele>
        <time>2021-10-14T12:53:51Z</time>
      </trkpt>
      <trkpt lat="44.44663" lon="5.09242">
        <ele>1042.1</ele>
        <time>2021-10-14T12:54:05Z</time>
      </trkpt>
      <trkpt lat="44.44658" lon="5.09242">
        <ele>1040.9</ele>
        <time>2021-10-14T12:54:09Z</time>
      </trkpt>
      <trkpt lat="44.44636" lon="5.09261">
        <ele>1040.6</ele>
        <time>2021-10-14T12:54:30Z</time>
      </trkpt>
      <trkpt lat="44.44607" lon="5.09286">
        <ele>1040</ele>
        <time>2021-10-14T12:54:59Z</time>
      </trkpt>
      <trkpt lat="44.44585" lon="5.09298">
        <ele>1037.9</ele>
        <time>2021-10-14T12:55:21Z</time>
      </trkpt>
      <trkpt lat="44.44565" lon="5.09321">
        <ele>1038.1</ele>
        <time>2021-10-14T12:55:43Z</time>
      </trkpt>
      <trkpt lat="44.44549" lon="5.09337">
        <ele>1036.9</ele>
        <time>2021-10-14T12:56:03Z</time>
      </trkpt>
      <trkpt lat="44.44534" lon="5.09347">
        <ele>1034.5</ele>
        <time>2021-10-14T12:56:19Z</time>
      </trkpt>
      <trkpt lat="44.44514" lon="5.09363">
        <ele>1031.8</ele>
        <time>2021-10-14T12:56:41Z</time>
      </trkpt>
      <trkpt lat="44.4449" lon="5.09381">
        <ele>1028.6</ele>
        <time>2021-10-14T12:57:04Z</time>
      </trkpt>
      <trkpt lat="44.44467" lon="5.09401">
        <ele>1026.7</ele>
        <time>2021-10-14T12:57:27Z</time>
      </trkpt>
      <trkpt lat="44.44442" lon="5.09423">
        <ele>1024.3</ele>
        <time>2021-10-14T12:57:51Z</time>
      </trkpt>
      <trkpt lat="44.44423" lon="5.09435">
        <ele>1020.9</ele>
        <time>2021-10-14T12:58:09Z</time>
      </trkpt>
      <trkpt lat="44.44399" lon="5.09453">
        <ele>1015.4</ele>
        <time>2021-10-14T12:58:32Z</time>
      </trkpt>
      <trkpt lat="44.44382" lon="5.09465">
        <ele>1010.8</ele>
        <time>2021-10-14T12:58:51Z</time>
      </trkpt>
      <trkpt lat="44.4436" lon="5.09477">
        <ele>1004.1</ele>
        <time>2021-10-14T12:59:12Z</time>
      </trkpt>
      <trkpt lat="44.44345" lon="5.09494">
        <ele>999.9</ele>
        <time>2021-10-14T12:59:30Z</time>
      </trkpt>
      <trkpt lat="44.44344" lon="5.095">
        <ele>1000</ele>
        <time>2021-10-14T12:59:34Z</time>
      </trkpt>
      <trkpt lat="44.44352" lon="5.09525">
        <ele>1000.2</ele>
        <time>2021-10-14T12:59:53Z</time>
      </trkpt>
      <trkpt lat="44.44353" lon="5.0953">
        <ele>1000</ele>
        <time>2021-10-14T12:59:56Z</time>
      </trkpt>
      <trkpt lat="44.44361" lon="5.09548">
        <ele>1001.7</ele>
        <time>2021-10-14T13:00:11Z</time>
      </trkpt>
      <trkpt lat="44.44367" lon="5.09562">
        <ele>1003.2</ele>
        <time>2021-10-14T13:00:23Z</time>
      </trkpt>
      <trkpt lat="44.44376" lon="5.09574">
        <ele>1006.7</ele>
        <time>2021-10-14T13:00:34Z</time>
      </trkpt>
      <trkpt lat="44.44382" lon="5.0959">
        <ele>1007.5</ele>
        <time>2021-10-14T13:00:50Z</time>
      </trkpt>
      <trkpt lat="44.44387" lon="5.09611">
        <ele>1005</ele>
        <time>2021-10-14T13:01:05Z</time>
      </trkpt>
      <trkpt lat="44.44391" lon="5.09625">
        <ele>1003.8</ele>
        <time>2021-10-14T13:01:15Z</time>
      </trkpt>
      <trkpt lat="44.44392" lon="5.0964">
        <ele>1000.8</ele>
        <time>2021-10-14T13:01:21Z</time>
      </trkpt>
      <trkpt lat="44.44398" lon="5.0967">
        <ele>997.4</ele>
        <time>2021-10-14T13:01:40Z</time>
      </trkpt>
      <trkpt lat="44.44402" lon="5.0969">
        <ele>996.1</ele>
        <time>2021-10-14T13:01:54Z</time>
      </trkpt>
      <trkpt lat="44.44402" lon="5.09691">
        <ele>995.9</ele>
        <time>2021-10-14T13:01:55Z</time>
      </trkpt>
      <trkpt lat="44.44407" lon="5.09711">
        <ele>995.3</ele>
        <time>2021-10-14T13:02:10Z</time>
      </trkpt>
      <trkpt lat="44.44409" lon="5.09738">
        <ele>991.6</ele>
        <time>2021-10-14T13:02:27Z</time>
      </trkpt>
      <trkpt lat="44.4441" lon="5.09744">
        <ele>991.1</ele>
        <time>2021-10-14T13:02:31Z</time>
      </trkpt>
      <trkpt lat="44.44413" lon="5.09774">
        <ele>988.8</ele>
        <time>2021-10-14T13:02:51Z</time>
      </trkpt>
      <trkpt lat="44.44413" lon="5.098">
        <ele>985.5</ele>
        <time>2021-10-14T13:03:07Z</time>
      </trkpt>
      <trkpt lat="44.44417" lon="5.0982">
        <ele>984.9</ele>
        <time>2021-10-14T13:03:25Z</time>
      </trkpt>
      <trkpt lat="44.44421" lon="5.09845">
        <ele>984.3</ele>
        <time>2021-10-14T13:03:43Z</time>
      </trkpt>
      <trkpt lat="44.44422" lon="5.09849">
        <ele>984.4</ele>
        <time>2021-10-14T13:03:46Z</time>
      </trkpt>
      <trkpt lat="44.44428" lon="5.09873">
        <ele>984.9</ele>
        <time>2021-10-14T13:04:03Z</time>
      </trkpt>
      <trkpt lat="44.44432" lon="5.09889">
        <ele>984.8</ele>
        <time>2021-10-14T13:04:17Z</time>
      </trkpt>
      <trkpt lat="44.44436" lon="5.09898">
        <ele>985.3</ele>
        <time>2021-10-14T13:04:21Z</time>
      </trkpt>
      <trkpt lat="44.44437" lon="5.09901">
        <ele>985.3</ele>
        <time>2021-10-14T13:04:22Z</time>
      </trkpt>
      <trkpt lat="44.44437" lon="5.09903">
        <ele>985</ele>
        <time>2021-10-14T13:04:23Z</time>
      </trkpt>
      <trkpt lat="44.44438" lon="5.09906">
        <ele>985</ele>
        <time>2021-10-14T13:04:24Z</time>
      </trkpt>
      <trkpt lat="44.4444" lon="5.09918">
        <ele>984.5</ele>
        <time>2021-10-14T13:04:36Z</time>
      </trkpt>
      <trkpt lat="44.44447" lon="5.0993">
        <ele>988.8</ele>
        <time>2021-10-14T13:04:50Z</time>
      </trkpt>
      <trkpt lat="44.44448" lon="5.09932">
        <ele>989.5</ele>
        <time>2021-10-14T13:04:51Z</time>
      </trkpt>
      <trkpt lat="44.44453" lon="5.09942">
        <ele>992.6</ele>
        <time>2021-10-14T13:05:01Z</time>
      </trkpt>
      <trkpt lat="44.44454" lon="5.09944">
        <ele>993.2</ele>
        <time>2021-10-14T13:05:02Z</time>
      </trkpt>
      <trkpt lat="44.44453" lon="5.09958">
        <ele>995.2</ele>
        <time>2021-10-14T13:05:09Z</time>
      </trkpt>
      <trkpt lat="44.44452" lon="5.0996">
        <ele>995.3</ele>
        <time>2021-10-14T13:05:10Z</time>
      </trkpt>
      <trkpt lat="44.44442" lon="5.09963">
        <ele>993.7</ele>
        <time>2021-10-14T13:05:28Z</time>
      </trkpt>
      <trkpt lat="44.44441" lon="5.09961">
        <ele>993.1</ele>
        <time>2021-10-14T13:05:34Z</time>
      </trkpt>
      <trkpt lat="44.44436" lon="5.09964">
        <ele>992.5</ele>
        <time>2021-10-14T13:05:50Z</time>
      </trkpt>
      <trkpt lat="44.44434" lon="5.09965">
        <ele>992.3</ele>
        <time>2021-10-14T13:05:52Z</time>
      </trkpt>
      <trkpt lat="44.44433" lon="5.09965">
        <ele>992.1</ele>
        <time>2021-10-14T13:05:53Z</time>
      </trkpt>
      <trkpt lat="44.44415" lon="5.09961">
        <ele>987.7</ele>
        <time>2021-10-14T13:06:13Z</time>
      </trkpt>
      <trkpt lat="44.44402" lon="5.09955">
        <ele>986.2</ele>
        <time>2021-10-14T13:06:29Z</time>
      </trkpt>
      <trkpt lat="44.44384" lon="5.09945">
        <ele>983.2</ele>
        <time>2021-10-14T13:06:46Z</time>
      </trkpt>
      <trkpt lat="44.44363" lon="5.09931">
        <ele>978</ele>
        <time>2021-10-14T13:07:07Z</time>
      </trkpt>
      <trkpt lat="44.44353" lon="5.09921">
        <ele>974</ele>
        <time>2021-10-14T13:07:22Z</time>
      </trkpt>
      <trkpt lat="44.4435" lon="5.09922">
        <ele>974.1</ele>
        <time>2021-10-14T13:07:47Z</time>
      </trkpt>
      <trkpt lat="44.4434" lon="5.09906">
        <ele>968.5</ele>
        <time>2021-10-14T13:08:15Z</time>
      </trkpt>
      <trkpt lat="44.44334" lon="5.09897">
        <ele>965</ele>
        <time>2021-10-14T13:08:28Z</time>
      </trkpt>
      <trkpt lat="44.44333" lon="5.09895">
        <ele>964.3</ele>
        <time>2021-10-14T13:08:29Z</time>
      </trkpt>
      <trkpt lat="44.44331" lon="5.09893">
        <ele>963.8</ele>
        <time>2021-10-14T13:08:31Z</time>
      </trkpt>
      <trkpt lat="44.44331" lon="5.09892">
        <ele>963.5</ele>
        <time>2021-10-14T13:08:32Z</time>
      </trkpt>
      <trkpt lat="44.4433" lon="5.09891">
        <ele>963.3</ele>
        <time>2021-10-14T13:08:33Z</time>
      </trkpt>
      <trkpt lat="44.44323" lon="5.09885">
        <ele>962</ele>
        <time>2021-10-14T13:08:42Z</time>
      </trkpt>
      <trkpt lat="44.44312" lon="5.09873">
        <ele>959.1</ele>
        <time>2021-10-14T13:08:57Z</time>
      </trkpt>
      <trkpt lat="44.44311" lon="5.09871">
        <ele>958.6</ele>
        <time>2021-10-14T13:08:58Z</time>
      </trkpt>
      <trkpt lat="44.443" lon="5.09859">
        <ele>955.5</ele>
        <time>2021-10-14T13:09:13Z</time>
      </trkpt>
      <trkpt lat="44.44286" lon="5.0985">
        <ele>953.5</ele>
        <time>2021-10-14T13:09:28Z</time>
      </trkpt>
      <trkpt lat="44.44273" lon="5.0984">
        <ele>950.9</ele>
        <time>2021-10-14T13:09:42Z</time>
      </trkpt>
      <trkpt lat="44.44272" lon="5.09838">
        <ele>950.3</ele>
        <time>2021-10-14T13:09:43Z</time>
      </trkpt>
      <trkpt lat="44.44269" lon="5.09835">
        <ele>949.4</ele>
        <time>2021-10-14T13:09:47Z</time>
      </trkpt>
      <trkpt lat="44.44257" lon="5.09828">
        <ele>948</ele>
        <time>2021-10-14T13:10:02Z</time>
      </trkpt>
      <trkpt lat="44.4424" lon="5.09817">
        <ele>944.5</ele>
        <time>2021-10-14T13:10:20Z</time>
      </trkpt>
      <trkpt lat="44.44223" lon="5.09809">
        <ele>941.6</ele>
        <time>2021-10-14T13:10:40Z</time>
      </trkpt>
      <trkpt lat="44.44221" lon="5.09808">
        <ele>941.2</ele>
        <time>2021-10-14T13:10:43Z</time>
      </trkpt>
      <trkpt lat="44.44214" lon="5.09806">
        <ele>940.4</ele>
        <time>2021-10-14T13:10:51Z</time>
      </trkpt>
      <trkpt lat="44.44194" lon="5.09804">
        <ele>939.4</ele>
        <time>2021-10-14T13:11:10Z</time>
      </trkpt>
      <trkpt lat="44.44177" lon="5.09803">
        <ele>938.7</ele>
        <time>2021-10-14T13:11:27Z</time>
      </trkpt>
      <trkpt lat="44.44158" lon="5.09802">
        <ele>936.7</ele>
        <time>2021-10-14T13:11:47Z</time>
      </trkpt>
      <trkpt lat="44.44135" lon="5.09806">
        <ele>934.4</ele>
        <time>2021-10-14T13:12:10Z</time>
      </trkpt>
      <trkpt lat="44.4411" lon="5.09811">
        <ele>931.8</ele>
        <time>2021-10-14T13:12:32Z</time>
      </trkpt>
      <trkpt lat="44.44086" lon="5.09814">
        <ele>928.6</ele>
        <time>2021-10-14T13:12:54Z</time>
      </trkpt>
      <trkpt lat="44.44063" lon="5.09817">
        <ele>925.7</ele>
        <time>2021-10-14T13:13:15Z</time>
      </trkpt>
      <trkpt lat="44.44042" lon="5.09822">
        <ele>923.6</ele>
        <time>2021-10-14T13:13:36Z</time>
      </trkpt>
      <trkpt lat="44.4403" lon="5.09815">
        <ele>919.9</ele>
        <time>2021-10-14T13:13:50Z</time>
      </trkpt>
      <trkpt lat="44.44032" lon="5.09813">
        <ele>919.7</ele>
        <time>2021-10-14T13:13:52Z</time>
      </trkpt>
      <trkpt lat="44.44033" lon="5.09812">
        <ele>919.6</ele>
        <time>2021-10-14T13:13:53Z</time>
      </trkpt>
      <trkpt lat="44.44034" lon="5.0981">
        <ele>919.3</ele>
        <time>2021-10-14T13:13:54Z</time>
      </trkpt>
      <trkpt lat="44.44042" lon="5.09809">
        <ele>920.3</ele>
        <time>2021-10-14T13:14:04Z</time>
      </trkpt>
      <trkpt lat="44.4405" lon="5.09805">
        <ele>920.5</ele>
        <time>2021-10-14T13:14:15Z</time>
      </trkpt>
      <trkpt lat="44.44067" lon="5.0979">
        <ele>919.4</ele>
        <time>2021-10-14T13:14:32Z</time>
      </trkpt>
      <trkpt lat="44.44079" lon="5.09775">
        <ele>917.6</ele>
        <time>2021-10-14T13:14:47Z</time>
      </trkpt>
      <trkpt lat="44.44094" lon="5.09759">
        <ele>915.4</ele>
        <time>2021-10-14T13:15:04Z</time>
      </trkpt>
      <trkpt lat="44.4411" lon="5.09747">
        <ele>913.3</ele>
        <time>2021-10-14T13:15:21Z</time>
      </trkpt>
      <trkpt lat="44.44122" lon="5.0974">
        <ele>911.6</ele>
        <time>2021-10-14T13:15:34Z</time>
      </trkpt>
      <trkpt lat="44.44137" lon="5.09733">
        <ele>910.2</ele>
        <time>2021-10-14T13:15:50Z</time>
      </trkpt>
      <trkpt lat="44.4414" lon="5.09732">
        <ele>910.1</ele>
        <time>2021-10-14T13:15:53Z</time>
      </trkpt>
      <trkpt lat="44.44142" lon="5.09731">
        <ele>909.9</ele>
        <time>2021-10-14T13:15:54Z</time>
      </trkpt>
      <trkpt lat="44.44143" lon="5.09731">
        <ele>910</ele>
        <time>2021-10-14T13:15:55Z</time>
      </trkpt>
      <trkpt lat="44.44144" lon="5.0973">
        <ele>909.7</ele>
        <time>2021-10-14T13:15:56Z</time>
      </trkpt>
      <trkpt lat="44.44157" lon="5.09721">
        <ele>907.5</ele>
        <time>2021-10-14T13:16:11Z</time>
      </trkpt>
      <trkpt lat="44.44158" lon="5.09721">
        <ele>907.6</ele>
        <time>2021-10-14T13:16:12Z</time>
      </trkpt>
      <trkpt lat="44.44166" lon="5.09717">
        <ele>906.9</ele>
        <time>2021-10-14T13:16:19Z</time>
      </trkpt>
      <trkpt lat="44.44167" lon="5.09716">
        <ele>906.6</ele>
        <time>2021-10-14T13:16:20Z</time>
      </trkpt>
      <trkpt lat="44.44183" lon="5.09706">
        <ele>906.2</ele>
        <time>2021-10-14T13:16:37Z</time>
      </trkpt>
      <trkpt lat="44.4419" lon="5.09705">
        <ele>907.4</ele>
        <time>2021-10-14T13:16:44Z</time>
      </trkpt>
      <trkpt lat="44.44191" lon="5.09705">
        <ele>907.6</ele>
        <time>2021-10-14T13:16:45Z</time>
      </trkpt>
      <trkpt lat="44.44193" lon="5.09705">
        <ele>908.1</ele>
        <time>2021-10-14T13:16:46Z</time>
      </trkpt>
      <trkpt lat="44.44195" lon="5.09705">
        <ele>908.5</ele>
        <time>2021-10-14T13:16:47Z</time>
      </trkpt>
      <trkpt lat="44.44196" lon="5.09705">
        <ele>908.7</ele>
        <time>2021-10-14T13:16:48Z</time>
      </trkpt>
      <trkpt lat="44.44212" lon="5.09706">
        <ele>912.5</ele>
        <time>2021-10-14T13:17:03Z</time>
      </trkpt>
      <trkpt lat="44.44225" lon="5.0971">
        <ele>916</ele>
        <time>2021-10-14T13:17:15Z</time>
      </trkpt>
      <trkpt lat="44.44241" lon="5.0971">
        <ele>919.3</ele>
        <time>2021-10-14T13:17:31Z</time>
      </trkpt>
      <trkpt lat="44.44231" lon="5.09703">
        <ele>916.3</ele>
        <time>2021-10-14T13:17:46Z</time>
      </trkpt>
      <trkpt lat="44.44229" lon="5.09706">
        <ele>916.3</ele>
        <time>2021-10-14T13:18:16Z</time>
      </trkpt>
      <trkpt lat="44.44228" lon="5.09709">
        <ele>916.5</ele>
        <time>2021-10-14T13:18:50Z</time>
      </trkpt>
      <trkpt lat="44.44227" lon="5.09697">
        <ele>914.5</ele>
        <time>2021-10-14T13:19:14Z</time>
      </trkpt>
      <trkpt lat="44.44216" lon="5.09692">
        <ele>910.8</ele>
        <time>2021-10-14T13:19:30Z</time>
      </trkpt>
      <trkpt lat="44.44208" lon="5.09681">
        <ele>906.1</ele>
        <time>2021-10-14T13:19:44Z</time>
      </trkpt>
      <trkpt lat="44.44196" lon="5.09669">
        <ele>898.9</ele>
        <time>2021-10-14T13:20:01Z</time>
      </trkpt>
      <trkpt lat="44.44188" lon="5.09667">
        <ele>895.3</ele>
        <time>2021-10-14T13:20:14Z</time>
      </trkpt>
      <trkpt lat="44.4418" lon="5.09662">
        <ele>892.5</ele>
        <time>2021-10-14T13:20:28Z</time>
      </trkpt>
      <trkpt lat="44.4417" lon="5.09658">
        <ele>888.8</ele>
        <time>2021-10-14T13:20:44Z</time>
      </trkpt>
      <trkpt lat="44.44161" lon="5.09653">
        <ele>886.6</ele>
        <time>2021-10-14T13:21:02Z</time>
      </trkpt>
      <trkpt lat="44.44154" lon="5.09648">
        <ele>885.3</ele>
        <time>2021-10-14T13:21:18Z</time>
      </trkpt>
      <trkpt lat="44.44144" lon="5.09645">
        <ele>883.1</ele>
        <time>2021-10-14T13:21:35Z</time>
      </trkpt>
      <trkpt lat="44.4414" lon="5.09639">
        <ele>881.9</ele>
        <time>2021-10-14T13:21:55Z</time>
      </trkpt>
      <trkpt lat="44.44132" lon="5.09628">
        <ele>879.1</ele>
        <time>2021-10-14T13:22:18Z</time>
      </trkpt>
      <trkpt lat="44.44127" lon="5.09616">
        <ele>876.4</ele>
        <time>2021-10-14T13:22:40Z</time>
      </trkpt>
      <trkpt lat="44.44121" lon="5.09609">
        <ele>873.5</ele>
        <time>2021-10-14T13:22:57Z</time>
      </trkpt>
      <trkpt lat="44.44115" lon="5.09601">
        <ele>870.1</ele>
        <time>2021-10-14T13:23:12Z</time>
      </trkpt>
      <trkpt lat="44.44107" lon="5.09593">
        <ele>865.6</ele>
        <time>2021-10-14T13:23:28Z</time>
      </trkpt>
      <trkpt lat="44.44097" lon="5.09587">
        <ele>860</ele>
        <time>2021-10-14T13:23:45Z</time>
      </trkpt>
      <trkpt lat="44.44086" lon="5.0958">
        <ele>854.8</ele>
        <time>2021-10-14T13:24:02Z</time>
      </trkpt>
      <trkpt lat="44.44076" lon="5.09573">
        <ele>853.2</ele>
        <time>2021-10-14T13:24:17Z</time>
      </trkpt>
      <trkpt lat="44.44065" lon="5.09564">
        <ele>852</ele>
        <time>2021-10-14T13:24:34Z</time>
      </trkpt>
      <trkpt lat="44.44059" lon="5.09573">
        <ele>849.5</ele>
        <time>2021-10-14T13:24:52Z</time>
      </trkpt>
      <trkpt lat="44.44067" lon="5.09569">
        <ele>851.8</ele>
        <time>2021-10-14T13:25:57Z</time>
      </trkpt>
      <trkpt lat="44.44068" lon="5.09567">
        <ele>852.3</ele>
        <time>2021-10-14T13:26:36Z</time>
      </trkpt>
      <trkpt lat="44.44067" lon="5.09563">
        <ele>852.6</ele>
        <time>2021-10-14T13:27:01Z</time>
      </trkpt>
      <trkpt lat="44.44068" lon="5.09568">
        <ele>852.2</ele>
        <time>2021-10-14T13:27:31Z</time>
      </trkpt>
      <trkpt lat="44.44067" lon="5.09571">
        <ele>851.5</ele>
        <time>2021-10-14T13:28:13Z</time>
      </trkpt>
      <trkpt lat="44.44066" lon="5.09574">
        <ele>850.9</ele>
        <time>2021-10-14T13:28:58Z</time>
      </trkpt>
      <trkpt lat="44.44066" lon="5.09571">
        <ele>851.3</ele>
        <time>2021-10-14T13:29:47Z</time>
      </trkpt>
      <trkpt lat="44.44065" lon="5.0957">
        <ele>851.2</ele>
        <time>2021-10-14T13:30:26Z</time>
      </trkpt>
      <trkpt lat="44.44056" lon="5.09557">
        <ele>850.5</ele>
        <time>2021-10-14T13:30:41Z</time>
      </trkpt>
      <trkpt lat="44.44043" lon="5.09541">
        <ele>848.2</ele>
        <time>2021-10-14T13:30:56Z</time>
      </trkpt>
      <trkpt lat="44.4403" lon="5.0953">
        <ele>844.6</ele>
        <time>2021-10-14T13:31:13Z</time>
      </trkpt>
      <trkpt lat="44.44018" lon="5.09516">
        <ele>840.5</ele>
        <time>2021-10-14T13:31:29Z</time>
      </trkpt>
      <trkpt lat="44.44002" lon="5.09499">
        <ele>834.1</ele>
        <time>2021-10-14T13:31:48Z</time>
      </trkpt>
      <trkpt lat="44.43989" lon="5.09492">
        <ele>831.4</ele>
        <time>2021-10-14T13:32:06Z</time>
      </trkpt>
      <trkpt lat="44.43961" lon="5.09474">
        <ele>825.9</ele>
        <time>2021-10-14T13:32:29Z</time>
      </trkpt>
      <trkpt lat="44.4394" lon="5.09471">
        <ele>818.6</ele>
        <time>2021-10-14T13:32:49Z</time>
      </trkpt>
      <trkpt lat="44.43921" lon="5.09462">
        <ele>813.4</ele>
        <time>2021-10-14T13:33:07Z</time>
      </trkpt>
      <trkpt lat="44.43903" lon="5.09449">
        <ele>808.3</ele>
        <time>2021-10-14T13:33:26Z</time>
      </trkpt>
      <trkpt lat="44.43889" lon="5.09432">
        <ele>804.2</ele>
        <time>2021-10-14T13:33:44Z</time>
      </trkpt>
      <trkpt lat="44.43883" lon="5.09424">
        <ele>802.1</ele>
        <time>2021-10-14T13:33:52Z</time>
      </trkpt>
      <trkpt lat="44.43878" lon="5.09405">
        <ele>801</ele>
        <time>2021-10-14T13:34:05Z</time>
      </trkpt>
      <trkpt lat="44.43878" lon="5.09377">
        <ele>803</ele>
        <time>2021-10-14T13:34:23Z</time>
      </trkpt>
      <trkpt lat="44.43876" lon="5.09356">
        <ele>803.1</ele>
        <time>2021-10-14T13:34:38Z</time>
      </trkpt>
      <trkpt lat="44.43871" lon="5.09337">
        <ele>801.1</ele>
        <time>2021-10-14T13:34:53Z</time>
      </trkpt>
      <trkpt lat="44.43866" lon="5.09322">
        <ele>797.1</ele>
        <time>2021-10-14T13:35:04Z</time>
      </trkpt>
      <trkpt lat="44.43857" lon="5.09293">
        <ele>789.4</ele>
        <time>2021-10-14T13:35:22Z</time>
      </trkpt>
      <trkpt lat="44.43852" lon="5.09267">
        <ele>784.7</ele>
        <time>2021-10-14T13:35:43Z</time>
      </trkpt>
      <trkpt lat="44.43861" lon="5.09239">
        <ele>787.5</ele>
        <time>2021-10-14T13:36:05Z</time>
      </trkpt>
      <trkpt lat="44.43862" lon="5.09237">
        <ele>787.8</ele>
        <time>2021-10-14T13:36:07Z</time>
      </trkpt>
      <trkpt lat="44.43867" lon="5.09211">
        <ele>786.6</ele>
        <time>2021-10-14T13:36:24Z</time>
      </trkpt>
      <trkpt lat="44.43879" lon="5.09192">
        <ele>789</ele>
        <time>2021-10-14T13:36:43Z</time>
      </trkpt>
      <trkpt lat="44.43886" lon="5.09183">
        <ele>790.2</ele>
        <time>2021-10-14T13:36:53Z</time>
      </trkpt>
      <trkpt lat="44.43897" lon="5.09164">
        <ele>791.5</ele>
        <time>2021-10-14T13:37:09Z</time>
      </trkpt>
      <trkpt lat="44.43901" lon="5.09161">
        <ele>793.6</ele>
        <time>2021-10-14T13:37:12Z</time>
      </trkpt>
      <trkpt lat="44.43902" lon="5.09142">
        <ele>798</ele>
        <time>2021-10-14T13:37:27Z</time>
      </trkpt>
      <trkpt lat="44.43888" lon="5.09157">
        <ele>789.9</ele>
        <time>2021-10-14T13:37:45Z</time>
      </trkpt>
      <trkpt lat="44.43876" lon="5.09171">
        <ele>784.1</ele>
        <time>2021-10-14T13:38:00Z</time>
      </trkpt>
      <trkpt lat="44.4386" lon="5.09192">
        <ele>780.9</ele>
        <time>2021-10-14T13:38:22Z</time>
      </trkpt>
      <trkpt lat="44.43851" lon="5.09207">
        <ele>778.6</ele>
        <time>2021-10-14T13:38:37Z</time>
      </trkpt>
      <trkpt lat="44.43836" lon="5.09228">
        <ele>773.1</ele>
        <time>2021-10-14T13:38:57Z</time>
      </trkpt>
      <trkpt lat="44.43817" lon="5.09242">
        <ele>764.1</ele>
        <time>2021-10-14T13:39:18Z</time>
      </trkpt>
      <trkpt lat="44.43812" lon="5.09253">
        <ele>761.8</ele>
        <time>2021-10-14T13:39:35Z</time>
      </trkpt>
      <trkpt lat="44.43818" lon="5.09273">
        <ele>765.6</ele>
        <time>2021-10-14T13:39:54Z</time>
      </trkpt>
      <trkpt lat="44.43821" lon="5.0928">
        <ele>767.4</ele>
        <time>2021-10-14T13:40:01Z</time>
      </trkpt>
      <trkpt lat="44.43826" lon="5.09302">
        <ele>770.8</ele>
        <time>2021-10-14T13:40:17Z</time>
      </trkpt>
      <trkpt lat="44.43828" lon="5.09326">
        <ele>772.7</ele>
        <time>2021-10-14T13:40:34Z</time>
      </trkpt>
      <trkpt lat="44.43825" lon="5.09351">
        <ele>771.5</ele>
        <time>2021-10-14T13:40:50Z</time>
      </trkpt>
      <trkpt lat="44.4382" lon="5.09377">
        <ele>769.5</ele>
        <time>2021-10-14T13:41:10Z</time>
      </trkpt>
      <trkpt lat="44.43817" lon="5.09391">
        <ele>768.7</ele>
        <time>2021-10-14T13:41:23Z</time>
      </trkpt>
      <trkpt lat="44.43815" lon="5.09401">
        <ele>768.2</ele>
        <time>2021-10-14T13:41:30Z</time>
      </trkpt>
      <trkpt lat="44.43806" lon="5.09421">
        <ele>766.3</ele>
        <time>2021-10-14T13:41:50Z</time>
      </trkpt>
      <trkpt lat="44.43801" lon="5.09435">
        <ele>766.5</ele>
        <time>2021-10-14T13:42:02Z</time>
      </trkpt>
      <trkpt lat="44.438" lon="5.09457">
        <ele>769</ele>
        <time>2021-10-14T13:42:19Z</time>
      </trkpt>
      <trkpt lat="44.43787" lon="5.09474">
        <ele>769.2</ele>
        <time>2021-10-14T13:42:40Z</time>
      </trkpt>
      <trkpt lat="44.43781" lon="5.09471">
        <ele>767.7</ele>
        <time>2021-10-14T13:42:46Z</time>
      </trkpt>
      <trkpt lat="44.43779" lon="5.09462">
        <ele>765.6</ele>
        <time>2021-10-14T13:42:53Z</time>
      </trkpt>
      <trkpt lat="44.43779" lon="5.09454">
        <ele>764.1</ele>
        <time>2021-10-14T13:42:58Z</time>
      </trkpt>
      <trkpt lat="44.43786" lon="5.09429">
        <ele>761.2</ele>
        <time>2021-10-14T13:43:19Z</time>
      </trkpt>
      <trkpt lat="44.43787" lon="5.09421">
        <ele>760.2</ele>
        <time>2021-10-14T13:43:25Z</time>
      </trkpt>
      <trkpt lat="44.43788" lon="5.09415">
        <ele>759.6</ele>
        <time>2021-10-14T13:43:29Z</time>
      </trkpt>
      <trkpt lat="44.4379" lon="5.09386">
        <ele>757.2</ele>
        <time>2021-10-14T13:43:50Z</time>
      </trkpt>
      <trkpt lat="44.4379" lon="5.09361">
        <ele>754.5</ele>
        <time>2021-10-14T13:44:08Z</time>
      </trkpt>
      <trkpt lat="44.43786" lon="5.09341">
        <ele>750.2</ele>
        <time>2021-10-14T13:44:24Z</time>
      </trkpt>
      <trkpt lat="44.43782" lon="5.09316">
        <ele>746.8</ele>
        <time>2021-10-14T13:44:43Z</time>
      </trkpt>
      <trkpt lat="44.43776" lon="5.09297">
        <ele>743.3</ele>
        <time>2021-10-14T13:45:00Z</time>
      </trkpt>
      <trkpt lat="44.43772" lon="5.09298">
        <ele>741.1</ele>
        <time>2021-10-14T13:45:05Z</time>
      </trkpt>
      <trkpt lat="44.43774" lon="5.09318">
        <ele>742.4</ele>
        <time>2021-10-14T13:45:21Z</time>
      </trkpt>
      <trkpt lat="44.43778" lon="5.09337">
        <ele>745.3</ele>
        <time>2021-10-14T13:45:38Z</time>
      </trkpt>
      <trkpt lat="44.4377" lon="5.09356">
        <ele>743.9</ele>
        <time>2021-10-14T13:45:50Z</time>
      </trkpt>
      <trkpt lat="44.43752" lon="5.0936">
        <ele>735.7</ele>
        <time>2021-10-14T13:46:08Z</time>
      </trkpt>
      <trkpt lat="44.43738" lon="5.09353">
        <ele>734.3</ele>
        <time>2021-10-14T13:46:25Z</time>
      </trkpt>
      <trkpt lat="44.4372" lon="5.09342">
        <ele>732.6</ele>
        <time>2021-10-14T13:46:46Z</time>
      </trkpt>
      <trkpt lat="44.43705" lon="5.09335">
        <ele>731.2</ele>
        <time>2021-10-14T13:47:03Z</time>
      </trkpt>
      <trkpt lat="44.43703" lon="5.09318">
        <ele>727.8</ele>
        <time>2021-10-14T13:47:18Z</time>
      </trkpt>
      <trkpt lat="44.4371" lon="5.09317">
        <ele>727.8</ele>
        <time>2021-10-14T13:47:26Z</time>
      </trkpt>
      <trkpt lat="44.43714" lon="5.09317">
        <ele>727.9</ele>
        <time>2021-10-14T13:47:29Z</time>
      </trkpt>
      <trkpt lat="44.43725" lon="5.09301">
        <ele>726.6</ele>
        <time>2021-10-14T13:47:48Z</time>
      </trkpt>
      <trkpt lat="44.43718" lon="5.09283">
        <ele>723.7</ele>
        <time>2021-10-14T13:48:06Z</time>
      </trkpt>
      <trkpt lat="44.4371" lon="5.09284">
        <ele>722.5</ele>
        <time>2021-10-14T13:48:16Z</time>
      </trkpt>
      <trkpt lat="44.43691" lon="5.09288">
        <ele>720.3</ele>
        <time>2021-10-14T13:48:34Z</time>
      </trkpt>
      <trkpt lat="44.43693" lon="5.09274">
        <ele>717.4</ele>
        <time>2021-10-14T13:48:47Z</time>
      </trkpt>
      <trkpt lat="44.43697" lon="5.09252">
        <ele>713.5</ele>
        <time>2021-10-14T13:49:07Z</time>
      </trkpt>
      <trkpt lat="44.43683" lon="5.09252">
        <ele>709.4</ele>
        <time>2021-10-14T13:49:24Z</time>
      </trkpt>
      <trkpt lat="44.43668" lon="5.09244">
        <ele>704.3</ele>
        <time>2021-10-14T13:49:43Z</time>
      </trkpt>
      <trkpt lat="44.43657" lon="5.09231">
        <ele>703.5</ele>
        <time>2021-10-14T13:49:59Z</time>
      </trkpt>
      <trkpt lat="44.43644" lon="5.0922">
        <ele>702.3</ele>
        <time>2021-10-14T13:50:16Z</time>
      </trkpt>
      <trkpt lat="44.43643" lon="5.09219">
        <ele>702.1</ele>
        <time>2021-10-14T13:50:18Z</time>
      </trkpt>
      <trkpt lat="44.43631" lon="5.0921">
        <ele>700.1</ele>
        <time>2021-10-14T13:50:33Z</time>
      </trkpt>
      <trkpt lat="44.43621" lon="5.09198">
        <ele>696.8</ele>
        <time>2021-10-14T13:50:48Z</time>
      </trkpt>
      <trkpt lat="44.43611" lon="5.09185">
        <ele>692.4</ele>
        <time>2021-10-14T13:51:05Z</time>
      </trkpt>
      <trkpt lat="44.43608" lon="5.0918">
        <ele>690.6</ele>
        <time>2021-10-14T13:51:10Z</time>
      </trkpt>
      <trkpt lat="44.43596" lon="5.09163">
        <ele>684.1</ele>
        <time>2021-10-14T13:51:28Z</time>
      </trkpt>
      <trkpt lat="44.4359" lon="5.09148">
        <ele>681.7</ele>
        <time>2021-10-14T13:51:44Z</time>
      </trkpt>
      <trkpt lat="44.43588" lon="5.09141">
        <ele>680.7</ele>
        <time>2021-10-14T13:51:52Z</time>
      </trkpt>
      <trkpt lat="44.43581" lon="5.09129">
        <ele>678.4</ele>
        <time>2021-10-14T13:52:08Z</time>
      </trkpt>
      <trkpt lat="44.4356" lon="5.09121">
        <ele>678.1</ele>
        <time>2021-10-14T13:52:30Z</time>
      </trkpt>
      <trkpt lat="44.43543" lon="5.0911">
        <ele>676.8</ele>
        <time>2021-10-14T13:52:50Z</time>
      </trkpt>
      <trkpt lat="44.43532" lon="5.09087">
        <ele>673.1</ele>
        <time>2021-10-14T13:53:11Z</time>
      </trkpt>
      <trkpt lat="44.43526" lon="5.09075">
        <ele>671.7</ele>
        <time>2021-10-14T13:53:23Z</time>
      </trkpt>
      <trkpt lat="44.43516" lon="5.09054">
        <ele>669</ele>
        <time>2021-10-14T13:53:46Z</time>
      </trkpt>
      <trkpt lat="44.43511" lon="5.09033">
        <ele>666</ele>
        <time>2021-10-14T13:54:07Z</time>
      </trkpt>
      <trkpt lat="44.43503" lon="5.09011">
        <ele>661.4</ele>
        <time>2021-10-14T13:54:27Z</time>
      </trkpt>
      <trkpt lat="44.43496" lon="5.08996">
        <ele>660.4</ele>
        <time>2021-10-14T13:54:44Z</time>
      </trkpt>
      <trkpt lat="44.43488" lon="5.08972">
        <ele>663</ele>
        <time>2021-10-14T13:55:06Z</time>
      </trkpt>
      <trkpt lat="44.4348" lon="5.08948">
        <ele>663.6</ele>
        <time>2021-10-14T13:55:27Z</time>
      </trkpt>
      <trkpt lat="44.43473" lon="5.08928">
        <ele>662.5</ele>
        <time>2021-10-14T13:55:45Z</time>
      </trkpt>
      <trkpt lat="44.43468" lon="5.08909">
        <ele>661.3</ele>
        <time>2021-10-14T13:56:04Z</time>
      </trkpt>
      <trkpt lat="44.4346" lon="5.08893">
        <ele>659.9</ele>
        <time>2021-10-14T13:56:22Z</time>
      </trkpt>
      <trkpt lat="44.43445" lon="5.08879">
        <ele>655.5</ele>
        <time>2021-10-14T13:56:44Z</time>
      </trkpt>
      <trkpt lat="44.43426" lon="5.0887">
        <ele>648.8</ele>
        <time>2021-10-14T13:57:05Z</time>
      </trkpt>
      <trkpt lat="44.43412" lon="5.0885">
        <ele>641.6</ele>
        <time>2021-10-14T13:57:25Z</time>
      </trkpt>
      <trkpt lat="44.43393" lon="5.08835">
        <ele>634.1</ele>
        <time>2021-10-14T13:57:48Z</time>
      </trkpt>
      <trkpt lat="44.43386" lon="5.08837">
        <ele>632.8</ele>
        <time>2021-10-14T13:57:56Z</time>
      </trkpt>
      <trkpt lat="44.43368" lon="5.0884">
        <ele>629.1</ele>
        <time>2021-10-14T13:58:16Z</time>
      </trkpt>
      <trkpt lat="44.4335" lon="5.08834">
        <ele>622.6</ele>
        <time>2021-10-14T13:58:36Z</time>
      </trkpt>
      <trkpt lat="44.43345" lon="5.08831">
        <ele>620.7</ele>
        <time>2021-10-14T13:58:42Z</time>
      </trkpt>
      <trkpt lat="44.43321" lon="5.0882">
        <ele>615.8</ele>
        <time>2021-10-14T13:59:06Z</time>
      </trkpt>
      <trkpt lat="44.43297" lon="5.08818">
        <ele>615.7</ele>
        <time>2021-10-14T13:59:28Z</time>
      </trkpt>
      <trkpt lat="44.43274" lon="5.08817">
        <ele>615.7</ele>
        <time>2021-10-14T13:59:50Z</time>
      </trkpt>
      <trkpt lat="44.43269" lon="5.08815">
        <ele>615.1</ele>
        <time>2021-10-14T13:59:55Z</time>
      </trkpt>
      <trkpt lat="44.43261" lon="5.08801">
        <ele>611.1</ele>
        <time>2021-10-14T14:00:07Z</time>
      </trkpt>
      <trkpt lat="44.43259" lon="5.08794">
        <ele>609</ele>
        <time>2021-10-14T14:00:12Z</time>
      </trkpt>
      <trkpt lat="44.43258" lon="5.08766">
        <ele>600.6</ele>
        <time>2021-10-14T14:00:32Z</time>
      </trkpt>
      <trkpt lat="44.43257" lon="5.08745">
        <ele>594.8</ele>
        <time>2021-10-14T14:00:50Z</time>
      </trkpt>
      <trkpt lat="44.43249" lon="5.08736">
        <ele>592.3</ele>
        <time>2021-10-14T14:01:02Z</time>
      </trkpt>
      <trkpt lat="44.43245" lon="5.08735">
        <ele>592.8</ele>
        <time>2021-10-14T14:01:06Z</time>
      </trkpt>
      <trkpt lat="44.43238" lon="5.08736">
        <ele>594.1</ele>
        <time>2021-10-14T14:01:14Z</time>
      </trkpt>
      <trkpt lat="44.43231" lon="5.08734">
        <ele>594.8</ele>
        <time>2021-10-14T14:01:30Z</time>
      </trkpt>
      <trkpt lat="44.43224" lon="5.08737">
        <ele>596.6</ele>
        <time>2021-10-14T14:01:59Z</time>
      </trkpt>
      <trkpt lat="44.43223" lon="5.08738">
        <ele>597</ele>
        <time>2021-10-14T14:02:00Z</time>
      </trkpt>
      <trkpt lat="44.43218" lon="5.08739">
        <ele>598.1</ele>
        <time>2021-10-14T14:02:06Z</time>
      </trkpt>
      <trkpt lat="44.432" lon="5.0873">
        <ele>598.8</ele>
        <time>2021-10-14T14:02:25Z</time>
      </trkpt>
      <trkpt lat="44.43188" lon="5.0871">
        <ele>595.1</ele>
        <time>2021-10-14T14:02:42Z</time>
      </trkpt>
      <trkpt lat="44.43171" lon="5.08687">
        <ele>590.6</ele>
        <time>2021-10-14T14:03:03Z</time>
      </trkpt>
      <trkpt lat="44.43159" lon="5.08657">
        <ele>584</ele>
        <time>2021-10-14T14:03:25Z</time>
      </trkpt>
      <trkpt lat="44.43145" lon="5.08625">
        <ele>579.2</ele>
        <time>2021-10-14T14:03:51Z</time>
      </trkpt>
      <trkpt lat="44.43142" lon="5.08623">
        <ele>579</ele>
        <time>2021-10-14T14:04:19Z</time>
      </trkpt>
      <trkpt lat="44.43136" lon="5.08618">
        <ele>578.5</ele>
        <time>2021-10-14T14:04:39Z</time>
      </trkpt>
      <trkpt lat="44.43127" lon="5.08608">
        <ele>577</ele>
        <time>2021-10-14T14:04:55Z</time>
      </trkpt>
      <trkpt lat="44.43118" lon="5.08603">
        <ele>576.6</ele>
        <time>2021-10-14T14:05:21Z</time>
      </trkpt>
      <trkpt lat="44.43113" lon="5.08607">
        <ele>577.8</ele>
        <time>2021-10-14T14:05:34Z</time>
      </trkpt>
      <trkpt lat="44.43109" lon="5.08619">
        <ele>580.7</ele>
        <time>2021-10-14T14:05:50Z</time>
      </trkpt>
      <trkpt lat="44.43107" lon="5.08619">
        <ele>580.8</ele>
        <time>2021-10-14T14:06:11Z</time>
      </trkpt>
      <trkpt lat="44.43107" lon="5.08619">
        <ele>580.8</ele>
        <time>2021-10-14T14:06:17Z</time>
      </trkpt>
    </trkseg>
  </trk>
</gpx>